<?xml version="1.0" encoding="UTF-8" standalone="no" ?>
<gpx xmlns="http://www.topografix.com/GPX/1/1" xmlns:xsi="http://www.w3.org/2001/XMLSchema-instance" xsi:schemaLocation="http://www.topografix.com/GPX/1/1 http://www.topografix.com/GPX/1/1/gpx.xsd" version="1.1" creator="VisuGPX - https://www.visugpx.com">
  <metadata>
    <name>Nans-sous-Ste-Anne - Source du Lison - Montmahoux</name>
    <desc><![CDATA[Randonnée pédestre effectuée le 11 avril 2019.]]></desc>
  </metadata>
  <trk>
    <name><![CDATA[20190411222337-FmznE]]></name>
    <trkseg>
      <trkpt lat="46.9768" lon="5.99898">
        <ele>368</ele>
        <time>2019-04-11T07:06:06Z</time>
      </trkpt>
      <trkpt lat="46.9768" lon="5.99898">
        <ele>369</ele>
        <time>2019-04-11T07:06:07Z</time>
      </trkpt>
      <trkpt lat="46.97668" lon="5.99904">
        <ele>380</ele>
        <time>2019-04-11T07:09:38Z</time>
      </trkpt>
      <trkpt lat="46.97654" lon="5.99901">
        <ele>369</ele>
        <time>2019-04-11T07:10:23Z</time>
      </trkpt>
      <trkpt lat="46.97645" lon="5.99896">
        <ele>372</ele>
        <time>2019-04-11T07:10:31Z</time>
      </trkpt>
      <trkpt lat="46.97638" lon="5.99887">
        <ele>373</ele>
        <time>2019-04-11T07:10:39Z</time>
      </trkpt>
      <trkpt lat="46.97634" lon="5.99873">
        <ele>373</ele>
        <time>2019-04-11T07:10:48Z</time>
      </trkpt>
      <trkpt lat="46.97628" lon="5.99863">
        <ele>373</ele>
        <time>2019-04-11T07:10:57Z</time>
      </trkpt>
      <trkpt lat="46.97623" lon="5.99848">
        <ele>373</ele>
        <time>2019-04-11T07:11:09Z</time>
      </trkpt>
      <trkpt lat="46.97614" lon="5.99837">
        <ele>372</ele>
        <time>2019-04-11T07:11:21Z</time>
      </trkpt>
      <trkpt lat="46.97611" lon="5.99825">
        <ele>372</ele>
        <time>2019-04-11T07:11:29Z</time>
      </trkpt>
      <trkpt lat="46.97607" lon="5.99803">
        <ele>368</ele>
        <time>2019-04-11T07:11:45Z</time>
      </trkpt>
      <trkpt lat="46.97606" lon="5.99789">
        <ele>368</ele>
        <time>2019-04-11T07:11:54Z</time>
      </trkpt>
      <trkpt lat="46.97606" lon="5.99773">
        <ele>369</ele>
        <time>2019-04-11T07:12:08Z</time>
      </trkpt>
      <trkpt lat="46.97607" lon="5.99751">
        <ele>369</ele>
        <time>2019-04-11T07:12:23Z</time>
      </trkpt>
      <trkpt lat="46.976" lon="5.99738">
        <ele>369</ele>
        <time>2019-04-11T07:12:28Z</time>
      </trkpt>
      <trkpt lat="46.97594" lon="5.997">
        <ele>373</ele>
        <time>2019-04-11T07:12:56Z</time>
      </trkpt>
      <trkpt lat="46.97587" lon="5.99675">
        <ele>371</ele>
        <time>2019-04-11T07:13:12Z</time>
      </trkpt>
      <trkpt lat="46.97579" lon="5.99649">
        <ele>372</ele>
        <time>2019-04-11T07:13:31Z</time>
      </trkpt>
      <trkpt lat="46.97575" lon="5.99636">
        <ele>372</ele>
        <time>2019-04-11T07:13:39Z</time>
      </trkpt>
      <trkpt lat="46.97571" lon="5.99617">
        <ele>376</ele>
        <time>2019-04-11T07:14:12Z</time>
      </trkpt>
      <trkpt lat="46.97561" lon="5.9962">
        <ele>375</ele>
        <time>2019-04-11T07:14:21Z</time>
      </trkpt>
      <trkpt lat="46.97552" lon="5.99623">
        <ele>376</ele>
        <time>2019-04-11T07:14:32Z</time>
      </trkpt>
      <trkpt lat="46.97542" lon="5.99628">
        <ele>375</ele>
        <time>2019-04-11T07:14:41Z</time>
      </trkpt>
      <trkpt lat="46.97532" lon="5.9963">
        <ele>376</ele>
        <time>2019-04-11T07:14:49Z</time>
      </trkpt>
      <trkpt lat="46.97523" lon="5.99632">
        <ele>374</ele>
        <time>2019-04-11T07:14:56Z</time>
      </trkpt>
      <trkpt lat="46.97515" lon="5.99638">
        <ele>373</ele>
        <time>2019-04-11T07:15:04Z</time>
      </trkpt>
      <trkpt lat="46.97506" lon="5.99645">
        <ele>373</ele>
        <time>2019-04-11T07:15:12Z</time>
      </trkpt>
      <trkpt lat="46.97498" lon="5.99651">
        <ele>373</ele>
        <time>2019-04-11T07:15:19Z</time>
      </trkpt>
      <trkpt lat="46.97461" lon="5.99669">
        <ele>366</ele>
        <time>2019-04-11T07:15:49Z</time>
      </trkpt>
      <trkpt lat="46.97451" lon="5.99672">
        <ele>365</ele>
        <time>2019-04-11T07:15:56Z</time>
      </trkpt>
      <trkpt lat="46.97434" lon="5.99679">
        <ele>369</ele>
        <time>2019-04-11T07:16:35Z</time>
      </trkpt>
      <trkpt lat="46.97426" lon="5.99683">
        <ele>368</ele>
        <time>2019-04-11T07:16:43Z</time>
      </trkpt>
      <trkpt lat="46.97408" lon="5.99693">
        <ele>373</ele>
        <time>2019-04-11T07:17:00Z</time>
      </trkpt>
      <trkpt lat="46.97399" lon="5.99699">
        <ele>371</ele>
        <time>2019-04-11T07:17:09Z</time>
      </trkpt>
      <trkpt lat="46.9739" lon="5.99702">
        <ele>371</ele>
        <time>2019-04-11T07:17:16Z</time>
      </trkpt>
      <trkpt lat="46.97381" lon="5.99707">
        <ele>372</ele>
        <time>2019-04-11T07:17:23Z</time>
      </trkpt>
      <trkpt lat="46.97371" lon="5.99708">
        <ele>372</ele>
        <time>2019-04-11T07:17:30Z</time>
      </trkpt>
      <trkpt lat="46.97352" lon="5.99712">
        <ele>372</ele>
        <time>2019-04-11T07:17:44Z</time>
      </trkpt>
      <trkpt lat="46.97334" lon="5.99718">
        <ele>368</ele>
        <time>2019-04-11T07:17:59Z</time>
      </trkpt>
      <trkpt lat="46.97325" lon="5.99722">
        <ele>368</ele>
        <time>2019-04-11T07:18:06Z</time>
      </trkpt>
      <trkpt lat="46.97316" lon="5.99722">
        <ele>367</ele>
        <time>2019-04-11T07:18:14Z</time>
      </trkpt>
      <trkpt lat="46.97306" lon="5.99717">
        <ele>367</ele>
        <time>2019-04-11T07:18:21Z</time>
      </trkpt>
      <trkpt lat="46.97297" lon="5.99717">
        <ele>366</ele>
        <time>2019-04-11T07:18:29Z</time>
      </trkpt>
      <trkpt lat="46.97286" lon="5.9972">
        <ele>365</ele>
        <time>2019-04-11T07:18:37Z</time>
      </trkpt>
      <trkpt lat="46.97277" lon="5.99725">
        <ele>364</ele>
        <time>2019-04-11T07:18:44Z</time>
      </trkpt>
      <trkpt lat="46.9727" lon="5.99735">
        <ele>364</ele>
        <time>2019-04-11T07:18:51Z</time>
      </trkpt>
      <trkpt lat="46.9726" lon="5.99754">
        <ele>368</ele>
        <time>2019-04-11T07:19:07Z</time>
      </trkpt>
      <trkpt lat="46.97257" lon="5.99795">
        <ele>372</ele>
        <time>2019-04-11T07:19:33Z</time>
      </trkpt>
      <trkpt lat="46.97252" lon="5.99804">
        <ele>373</ele>
        <time>2019-04-11T07:19:48Z</time>
      </trkpt>
      <trkpt lat="46.97252" lon="5.9981">
        <ele>373</ele>
        <time>2019-04-11T07:20:18Z</time>
      </trkpt>
      <trkpt lat="46.97252" lon="5.9982">
        <ele>374</ele>
        <time>2019-04-11T07:20:32Z</time>
      </trkpt>
      <trkpt lat="46.97249" lon="5.9983">
        <ele>377</ele>
        <time>2019-04-11T07:20:51Z</time>
      </trkpt>
      <trkpt lat="46.97244" lon="5.99838">
        <ele>376</ele>
        <time>2019-04-11T07:21:01Z</time>
      </trkpt>
      <trkpt lat="46.97239" lon="5.99843">
        <ele>376</ele>
        <time>2019-04-11T07:21:05Z</time>
      </trkpt>
      <trkpt lat="46.97235" lon="5.99847">
        <ele>376</ele>
        <time>2019-04-11T07:21:08Z</time>
      </trkpt>
      <trkpt lat="46.97204" lon="5.99877">
        <ele>382</ele>
        <time>2019-04-11T07:21:42Z</time>
      </trkpt>
      <trkpt lat="46.97187" lon="5.99888">
        <ele>380</ele>
        <time>2019-04-11T07:21:55Z</time>
      </trkpt>
      <trkpt lat="46.97179" lon="5.99894">
        <ele>380</ele>
        <time>2019-04-11T07:22:03Z</time>
      </trkpt>
      <trkpt lat="46.9717" lon="5.99898">
        <ele>381</ele>
        <time>2019-04-11T07:22:10Z</time>
      </trkpt>
      <trkpt lat="46.97153" lon="5.99909">
        <ele>381</ele>
        <time>2019-04-11T07:22:27Z</time>
      </trkpt>
      <trkpt lat="46.97136" lon="5.99922">
        <ele>383</ele>
        <time>2019-04-11T07:22:42Z</time>
      </trkpt>
      <trkpt lat="46.97125" lon="5.99927">
        <ele>385</ele>
        <time>2019-04-11T07:22:52Z</time>
      </trkpt>
      <trkpt lat="46.9711" lon="5.99945">
        <ele>387</ele>
        <time>2019-04-11T07:23:06Z</time>
      </trkpt>
      <trkpt lat="46.97109" lon="5.9996">
        <ele>387</ele>
        <time>2019-04-11T07:23:13Z</time>
      </trkpt>
      <trkpt lat="46.97104" lon="5.99976">
        <ele>388</ele>
        <time>2019-04-11T07:23:23Z</time>
      </trkpt>
      <trkpt lat="46.97096" lon="5.99984">
        <ele>387</ele>
        <time>2019-04-11T07:23:30Z</time>
      </trkpt>
      <trkpt lat="46.97092" lon="5.99996">
        <ele>387</ele>
        <time>2019-04-11T07:23:40Z</time>
      </trkpt>
      <trkpt lat="46.97086" lon="6.00008">
        <ele>389</ele>
        <time>2019-04-11T07:23:49Z</time>
      </trkpt>
      <trkpt lat="46.97088" lon="6.00022">
        <ele>391</ele>
        <time>2019-04-11T07:23:56Z</time>
      </trkpt>
      <trkpt lat="46.97084" lon="6.00044">
        <ele>389</ele>
        <time>2019-04-11T07:24:13Z</time>
      </trkpt>
      <trkpt lat="46.97082" lon="6.00057">
        <ele>389</ele>
        <time>2019-04-11T07:24:21Z</time>
      </trkpt>
      <trkpt lat="46.97072" lon="6.00099">
        <ele>386</ele>
        <time>2019-04-11T07:24:48Z</time>
      </trkpt>
      <trkpt lat="46.97067" lon="6.00111">
        <ele>384</ele>
        <time>2019-04-11T07:24:55Z</time>
      </trkpt>
      <trkpt lat="46.97061" lon="6.00125">
        <ele>384</ele>
        <time>2019-04-11T07:25:01Z</time>
      </trkpt>
      <trkpt lat="46.97059" lon="6.00136">
        <ele>383</ele>
        <time>2019-04-11T07:25:09Z</time>
      </trkpt>
      <trkpt lat="46.97051" lon="6.00149">
        <ele>383</ele>
        <time>2019-04-11T07:25:14Z</time>
      </trkpt>
      <trkpt lat="46.97052" lon="6.00164">
        <ele>383</ele>
        <time>2019-04-11T07:25:23Z</time>
      </trkpt>
      <trkpt lat="46.97044" lon="6.00175">
        <ele>382</ele>
        <time>2019-04-11T07:25:33Z</time>
      </trkpt>
      <trkpt lat="46.97039" lon="6.00186">
        <ele>382</ele>
        <time>2019-04-11T07:25:40Z</time>
      </trkpt>
      <trkpt lat="46.97029" lon="6.00192">
        <ele>382</ele>
        <time>2019-04-11T07:25:48Z</time>
      </trkpt>
      <trkpt lat="46.97023" lon="6.00206">
        <ele>384</ele>
        <time>2019-04-11T07:26:04Z</time>
      </trkpt>
      <trkpt lat="46.97019" lon="6.00226">
        <ele>382</ele>
        <time>2019-04-11T07:26:18Z</time>
      </trkpt>
      <trkpt lat="46.97012" lon="6.00232">
        <ele>381</ele>
        <time>2019-04-11T07:26:24Z</time>
      </trkpt>
      <trkpt lat="46.97013" lon="6.00245">
        <ele>379</ele>
        <time>2019-04-11T07:26:33Z</time>
      </trkpt>
      <trkpt lat="46.97006" lon="6.00257">
        <ele>379</ele>
        <time>2019-04-11T07:26:39Z</time>
      </trkpt>
      <trkpt lat="46.97004" lon="6.00272">
        <ele>378</ele>
        <time>2019-04-11T07:26:49Z</time>
      </trkpt>
      <trkpt lat="46.97001" lon="6.00286">
        <ele>379</ele>
        <time>2019-04-11T07:26:57Z</time>
      </trkpt>
      <trkpt lat="46.96998" lon="6.00299">
        <ele>377</ele>
        <time>2019-04-11T07:27:04Z</time>
      </trkpt>
      <trkpt lat="46.96996" lon="6.00313">
        <ele>379</ele>
        <time>2019-04-11T07:27:14Z</time>
      </trkpt>
      <trkpt lat="46.96993" lon="6.00327">
        <ele>378</ele>
        <time>2019-04-11T07:27:22Z</time>
      </trkpt>
      <trkpt lat="46.96985" lon="6.00334">
        <ele>379</ele>
        <time>2019-04-11T07:27:29Z</time>
      </trkpt>
      <trkpt lat="46.96982" lon="6.00362">
        <ele>383</ele>
        <time>2019-04-11T07:27:46Z</time>
      </trkpt>
      <trkpt lat="46.96974" lon="6.00368">
        <ele>383</ele>
        <time>2019-04-11T07:27:52Z</time>
      </trkpt>
      <trkpt lat="46.9697" lon="6.0038">
        <ele>383</ele>
        <time>2019-04-11T07:28:01Z</time>
      </trkpt>
      <trkpt lat="46.96958" lon="6.00404">
        <ele>380</ele>
        <time>2019-04-11T07:28:18Z</time>
      </trkpt>
      <trkpt lat="46.96962" lon="6.0042">
        <ele>378</ele>
        <time>2019-04-11T07:28:29Z</time>
      </trkpt>
      <trkpt lat="46.9695" lon="6.00439">
        <ele>380</ele>
        <time>2019-04-11T07:28:43Z</time>
      </trkpt>
      <trkpt lat="46.96939" lon="6.00444">
        <ele>379</ele>
        <time>2019-04-11T07:28:53Z</time>
      </trkpt>
      <trkpt lat="46.9693" lon="6.0045">
        <ele>380</ele>
        <time>2019-04-11T07:29:00Z</time>
      </trkpt>
      <trkpt lat="46.96918" lon="6.00447">
        <ele>381</ele>
        <time>2019-04-11T07:29:04Z</time>
      </trkpt>
      <trkpt lat="46.96911" lon="6.00454">
        <ele>379</ele>
        <time>2019-04-11T07:29:13Z</time>
      </trkpt>
      <trkpt lat="46.96907" lon="6.00468">
        <ele>380</ele>
        <time>2019-04-11T07:29:20Z</time>
      </trkpt>
      <trkpt lat="46.96894" lon="6.0048">
        <ele>379</ele>
        <time>2019-04-11T07:29:34Z</time>
      </trkpt>
      <trkpt lat="46.96892" lon="6.00495">
        <ele>378</ele>
        <time>2019-04-11T07:29:44Z</time>
      </trkpt>
      <trkpt lat="46.96889" lon="6.00508">
        <ele>378</ele>
        <time>2019-04-11T07:29:53Z</time>
      </trkpt>
      <trkpt lat="46.9688" lon="6.00517">
        <ele>379</ele>
        <time>2019-04-11T07:30:00Z</time>
      </trkpt>
      <trkpt lat="46.96864" lon="6.00532">
        <ele>378</ele>
        <time>2019-04-11T07:30:18Z</time>
      </trkpt>
      <trkpt lat="46.96855" lon="6.00536">
        <ele>379</ele>
        <time>2019-04-11T07:30:24Z</time>
      </trkpt>
      <trkpt lat="46.96848" lon="6.0055">
        <ele>379</ele>
        <time>2019-04-11T07:30:29Z</time>
      </trkpt>
      <trkpt lat="46.9684" lon="6.00559">
        <ele>379</ele>
        <time>2019-04-11T07:30:32Z</time>
      </trkpt>
      <trkpt lat="46.96834" lon="6.0057">
        <ele>383</ele>
        <time>2019-04-11T07:30:52Z</time>
      </trkpt>
      <trkpt lat="46.96832" lon="6.00584">
        <ele>384</ele>
        <time>2019-04-11T07:31:01Z</time>
      </trkpt>
      <trkpt lat="46.96827" lon="6.00611">
        <ele>382</ele>
        <time>2019-04-11T07:31:16Z</time>
      </trkpt>
      <trkpt lat="46.9682" lon="6.00633">
        <ele>382</ele>
        <time>2019-04-11T07:31:26Z</time>
      </trkpt>
      <trkpt lat="46.9681" lon="6.00649">
        <ele>382</ele>
        <time>2019-04-11T07:31:41Z</time>
      </trkpt>
      <trkpt lat="46.96806" lon="6.00661">
        <ele>384</ele>
        <time>2019-04-11T07:31:48Z</time>
      </trkpt>
      <trkpt lat="46.96798" lon="6.00691">
        <ele>385</ele>
        <time>2019-04-11T07:32:10Z</time>
      </trkpt>
      <trkpt lat="46.96796" lon="6.00705">
        <ele>385</ele>
        <time>2019-04-11T07:32:20Z</time>
      </trkpt>
      <trkpt lat="46.96795" lon="6.00719">
        <ele>384</ele>
        <time>2019-04-11T07:32:28Z</time>
      </trkpt>
      <trkpt lat="46.9679" lon="6.00733">
        <ele>384</ele>
        <time>2019-04-11T07:32:35Z</time>
      </trkpt>
      <trkpt lat="46.96789" lon="6.00745">
        <ele>385</ele>
        <time>2019-04-11T07:32:43Z</time>
      </trkpt>
      <trkpt lat="46.96793" lon="6.00761">
        <ele>385</ele>
        <time>2019-04-11T07:32:51Z</time>
      </trkpt>
      <trkpt lat="46.96793" lon="6.00775">
        <ele>386</ele>
        <time>2019-04-11T07:33:00Z</time>
      </trkpt>
      <trkpt lat="46.96785" lon="6.00787">
        <ele>387</ele>
        <time>2019-04-11T07:33:06Z</time>
      </trkpt>
      <trkpt lat="46.96777" lon="6.00793">
        <ele>387</ele>
        <time>2019-04-11T07:33:12Z</time>
      </trkpt>
      <trkpt lat="46.96776" lon="6.00808">
        <ele>388</ele>
        <time>2019-04-11T07:33:23Z</time>
      </trkpt>
      <trkpt lat="46.96771" lon="6.00824">
        <ele>386</ele>
        <time>2019-04-11T07:33:34Z</time>
      </trkpt>
      <trkpt lat="46.9677" lon="6.00838">
        <ele>386</ele>
        <time>2019-04-11T07:33:41Z</time>
      </trkpt>
      <trkpt lat="46.96764" lon="6.00847">
        <ele>386</ele>
        <time>2019-04-11T07:33:49Z</time>
      </trkpt>
      <trkpt lat="46.96755" lon="6.00856">
        <ele>386</ele>
        <time>2019-04-11T07:33:57Z</time>
      </trkpt>
      <trkpt lat="46.96755" lon="6.00869">
        <ele>385</ele>
        <time>2019-04-11T07:34:05Z</time>
      </trkpt>
      <trkpt lat="46.9675" lon="6.00885">
        <ele>385</ele>
        <time>2019-04-11T07:34:19Z</time>
      </trkpt>
      <trkpt lat="46.96741" lon="6.00892">
        <ele>385</ele>
        <time>2019-04-11T07:34:28Z</time>
      </trkpt>
      <trkpt lat="46.96731" lon="6.00895">
        <ele>384</ele>
        <time>2019-04-11T07:34:36Z</time>
      </trkpt>
      <trkpt lat="46.96722" lon="6.00892">
        <ele>383</ele>
        <time>2019-04-11T07:34:41Z</time>
      </trkpt>
      <trkpt lat="46.9671" lon="6.00891">
        <ele>383</ele>
        <time>2019-04-11T07:34:59Z</time>
      </trkpt>
      <trkpt lat="46.96701" lon="6.00896">
        <ele>383</ele>
        <time>2019-04-11T07:35:07Z</time>
      </trkpt>
      <trkpt lat="46.96688" lon="6.00888">
        <ele>384</ele>
        <time>2019-04-11T07:35:24Z</time>
      </trkpt>
      <trkpt lat="46.96674" lon="6.00889">
        <ele>383</ele>
        <time>2019-04-11T07:35:39Z</time>
      </trkpt>
      <trkpt lat="46.96665" lon="6.00888">
        <ele>384</ele>
        <time>2019-04-11T07:35:47Z</time>
      </trkpt>
      <trkpt lat="46.96654" lon="6.00891">
        <ele>385</ele>
        <time>2019-04-11T07:36:03Z</time>
      </trkpt>
      <trkpt lat="46.96636" lon="6.00878">
        <ele>388</ele>
        <time>2019-04-11T07:36:18Z</time>
      </trkpt>
      <trkpt lat="46.96628" lon="6.00859">
        <ele>389</ele>
        <time>2019-04-11T07:36:35Z</time>
      </trkpt>
      <trkpt lat="46.96618" lon="6.00855">
        <ele>391</ele>
        <time>2019-04-11T07:36:46Z</time>
      </trkpt>
      <trkpt lat="46.96613" lon="6.0084">
        <ele>395</ele>
        <time>2019-04-11T07:37:11Z</time>
      </trkpt>
      <trkpt lat="46.96604" lon="6.00836">
        <ele>396</ele>
        <time>2019-04-11T07:37:19Z</time>
      </trkpt>
      <trkpt lat="46.96585" lon="6.00834">
        <ele>399</ele>
        <time>2019-04-11T07:37:36Z</time>
      </trkpt>
      <trkpt lat="46.96592" lon="6.00796">
        <ele>403</ele>
        <time>2019-04-11T07:38:52Z</time>
      </trkpt>
      <trkpt lat="46.96568" lon="6.00785">
        <ele>407</ele>
        <time>2019-04-11T07:39:28Z</time>
      </trkpt>
      <trkpt lat="46.96538" lon="6.00785">
        <ele>413</ele>
        <time>2019-04-11T07:39:58Z</time>
      </trkpt>
      <trkpt lat="46.96537" lon="6.0083">
        <ele>433</ele>
        <time>2019-04-11T07:53:02Z</time>
      </trkpt>
      <trkpt lat="46.96539" lon="6.00852">
        <ele>445</ele>
        <time>2019-04-11T07:54:02Z</time>
      </trkpt>
      <trkpt lat="46.96552" lon="6.0085">
        <ele>446</ele>
        <time>2019-04-11T07:54:21Z</time>
      </trkpt>
      <trkpt lat="46.96575" lon="6.00875">
        <ele>475</ele>
        <time>2019-04-11T07:55:47Z</time>
      </trkpt>
      <trkpt lat="46.96584" lon="6.00871">
        <ele>448</ele>
        <time>2019-04-11T07:56:03Z</time>
      </trkpt>
      <trkpt lat="46.9659" lon="6.00859">
        <ele>438</ele>
        <time>2019-04-11T07:56:36Z</time>
      </trkpt>
      <trkpt lat="46.96596" lon="6.00869">
        <ele>437</ele>
        <time>2019-04-11T07:56:41Z</time>
      </trkpt>
      <trkpt lat="46.96599" lon="6.00883">
        <ele>435</ele>
        <time>2019-04-11T07:56:54Z</time>
      </trkpt>
      <trkpt lat="46.96619" lon="6.00883">
        <ele>426</ele>
        <time>2019-04-11T07:57:19Z</time>
      </trkpt>
      <trkpt lat="46.96621" lon="6.00895">
        <ele>416</ele>
        <time>2019-04-11T07:57:44Z</time>
      </trkpt>
      <trkpt lat="46.9663" lon="6.00895">
        <ele>416</ele>
        <time>2019-04-11T07:57:47Z</time>
      </trkpt>
      <trkpt lat="46.96642" lon="6.00903">
        <ele>413</ele>
        <time>2019-04-11T07:58:06Z</time>
      </trkpt>
      <trkpt lat="46.9665" lon="6.00892">
        <ele>412</ele>
        <time>2019-04-11T07:58:24Z</time>
      </trkpt>
      <trkpt lat="46.9665" lon="6.00891">
        <ele>401</ele>
        <time>2019-04-11T07:59:11Z</time>
      </trkpt>
      <trkpt lat="46.96652" lon="6.00942">
        <ele>399</ele>
        <time>2019-04-11T08:00:39Z</time>
      </trkpt>
      <trkpt lat="46.96659" lon="6.00952">
        <ele>400</ele>
        <time>2019-04-11T08:00:48Z</time>
      </trkpt>
      <trkpt lat="46.96671" lon="6.00964">
        <ele>407</ele>
        <time>2019-04-11T08:01:04Z</time>
      </trkpt>
      <trkpt lat="46.96678" lon="6.00977">
        <ele>400</ele>
        <time>2019-04-11T08:01:15Z</time>
      </trkpt>
      <trkpt lat="46.96687" lon="6.00984">
        <ele>402</ele>
        <time>2019-04-11T08:01:21Z</time>
      </trkpt>
      <trkpt lat="46.96696" lon="6.00984">
        <ele>401</ele>
        <time>2019-04-11T08:01:27Z</time>
      </trkpt>
      <trkpt lat="46.96702" lon="6.00999">
        <ele>392</ele>
        <time>2019-04-11T08:01:52Z</time>
      </trkpt>
      <trkpt lat="46.96696" lon="6.01004">
        <ele>389</ele>
        <time>2019-04-11T08:02:21Z</time>
      </trkpt>
      <trkpt lat="46.96692" lon="6.01025">
        <ele>381</ele>
        <time>2019-04-11T08:02:44Z</time>
      </trkpt>
      <trkpt lat="46.96682" lon="6.01029">
        <ele>380</ele>
        <time>2019-04-11T08:02:50Z</time>
      </trkpt>
      <trkpt lat="46.96672" lon="6.01038">
        <ele>380</ele>
        <time>2019-04-11T08:03:05Z</time>
      </trkpt>
      <trkpt lat="46.96677" lon="6.01048">
        <ele>379</ele>
        <time>2019-04-11T08:03:12Z</time>
      </trkpt>
      <trkpt lat="46.96679" lon="6.01062">
        <ele>378</ele>
        <time>2019-04-11T08:03:20Z</time>
      </trkpt>
      <trkpt lat="46.96673" lon="6.01075">
        <ele>378</ele>
        <time>2019-04-11T08:03:30Z</time>
      </trkpt>
      <trkpt lat="46.96653" lon="6.01083">
        <ele>382</ele>
        <time>2019-04-11T08:03:48Z</time>
      </trkpt>
      <trkpt lat="46.96644" lon="6.01088">
        <ele>379</ele>
        <time>2019-04-11T08:03:55Z</time>
      </trkpt>
      <trkpt lat="46.96629" lon="6.01094">
        <ele>380</ele>
        <time>2019-04-11T08:04:11Z</time>
      </trkpt>
      <trkpt lat="46.96622" lon="6.01104">
        <ele>381</ele>
        <time>2019-04-11T08:04:19Z</time>
      </trkpt>
      <trkpt lat="46.96611" lon="6.01113">
        <ele>378</ele>
        <time>2019-04-11T08:04:28Z</time>
      </trkpt>
      <trkpt lat="46.96606" lon="6.01129">
        <ele>376</ele>
        <time>2019-04-11T08:04:35Z</time>
      </trkpt>
      <trkpt lat="46.96597" lon="6.01129">
        <ele>373</ele>
        <time>2019-04-11T08:04:44Z</time>
      </trkpt>
      <trkpt lat="46.96599" lon="6.01141">
        <ele>373</ele>
        <time>2019-04-11T08:05:49Z</time>
      </trkpt>
      <trkpt lat="46.96584" lon="6.01133">
        <ele>380</ele>
        <time>2019-04-11T08:06:26Z</time>
      </trkpt>
      <trkpt lat="46.96571" lon="6.01131">
        <ele>381</ele>
        <time>2019-04-11T08:06:29Z</time>
      </trkpt>
      <trkpt lat="46.96576" lon="6.01192">
        <ele>392</ele>
        <time>2019-04-11T08:07:25Z</time>
      </trkpt>
      <trkpt lat="46.9658" lon="6.01177">
        <ele>390</ele>
        <time>2019-04-11T08:07:41Z</time>
      </trkpt>
      <trkpt lat="46.96589" lon="6.01166">
        <ele>392</ele>
        <time>2019-04-11T08:07:50Z</time>
      </trkpt>
      <trkpt lat="46.96579" lon="6.01155">
        <ele>401</ele>
        <time>2019-04-11T08:08:27Z</time>
      </trkpt>
      <trkpt lat="46.96582" lon="6.01156">
        <ele>391</ele>
        <time>2019-04-11T08:09:24Z</time>
      </trkpt>
      <trkpt lat="46.96575" lon="6.01168">
        <ele>387</ele>
        <time>2019-04-11T08:10:04Z</time>
      </trkpt>
      <trkpt lat="46.96528" lon="6.01154">
        <ele>370</ele>
        <time>2019-04-11T08:10:21Z</time>
      </trkpt>
      <trkpt lat="46.96555" lon="6.01199">
        <ele>365</ele>
        <time>2019-04-11T08:10:31Z</time>
      </trkpt>
      <trkpt lat="46.96553" lon="6.01192">
        <ele>382</ele>
        <time>2019-04-11T08:14:21Z</time>
      </trkpt>
      <trkpt lat="46.96558" lon="6.01243">
        <ele>411</ele>
        <time>2019-04-11T08:16:28Z</time>
      </trkpt>
      <trkpt lat="46.96551" lon="6.0125">
        <ele>407</ele>
        <time>2019-04-11T08:16:35Z</time>
      </trkpt>
      <trkpt lat="46.96543" lon="6.01253">
        <ele>408</ele>
        <time>2019-04-11T08:16:41Z</time>
      </trkpt>
      <trkpt lat="46.96544" lon="6.01242">
        <ele>409</ele>
        <time>2019-04-11T08:17:36Z</time>
      </trkpt>
      <trkpt lat="46.96548" lon="6.01225">
        <ele>406</ele>
        <time>2019-04-11T08:18:11Z</time>
      </trkpt>
      <trkpt lat="46.96542" lon="6.01215">
        <ele>410</ele>
        <time>2019-04-11T08:18:17Z</time>
      </trkpt>
      <trkpt lat="46.9655" lon="6.01204">
        <ele>414</ele>
        <time>2019-04-11T08:18:24Z</time>
      </trkpt>
      <trkpt lat="46.96552" lon="6.01192">
        <ele>419</ele>
        <time>2019-04-11T08:18:37Z</time>
      </trkpt>
      <trkpt lat="46.96559" lon="6.01194">
        <ele>437</ele>
        <time>2019-04-11T08:20:53Z</time>
      </trkpt>
      <trkpt lat="46.9654" lon="6.01199">
        <ele>428</ele>
        <time>2019-04-11T08:29:04Z</time>
      </trkpt>
      <trkpt lat="46.96539" lon="6.0121">
        <ele>425</ele>
        <time>2019-04-11T08:29:12Z</time>
      </trkpt>
      <trkpt lat="46.96546" lon="6.0125">
        <ele>400</ele>
        <time>2019-04-11T08:29:46Z</time>
      </trkpt>
      <trkpt lat="46.96537" lon="6.01248">
        <ele>397</ele>
        <time>2019-04-11T08:30:14Z</time>
      </trkpt>
      <trkpt lat="46.9653" lon="6.01263">
        <ele>402</ele>
        <time>2019-04-11T08:30:42Z</time>
      </trkpt>
      <trkpt lat="46.96523" lon="6.01276">
        <ele>401</ele>
        <time>2019-04-11T08:30:53Z</time>
      </trkpt>
      <trkpt lat="46.9651" lon="6.01262">
        <ele>414</ele>
        <time>2019-04-11T08:31:58Z</time>
      </trkpt>
      <trkpt lat="46.96501" lon="6.01261">
        <ele>413</ele>
        <time>2019-04-11T08:32:06Z</time>
      </trkpt>
      <trkpt lat="46.96491" lon="6.01256">
        <ele>413</ele>
        <time>2019-04-11T08:32:13Z</time>
      </trkpt>
      <trkpt lat="46.96496" lon="6.01271">
        <ele>418</ele>
        <time>2019-04-11T08:32:26Z</time>
      </trkpt>
      <trkpt lat="46.96459" lon="6.01266">
        <ele>420</ele>
        <time>2019-04-11T08:33:07Z</time>
      </trkpt>
      <trkpt lat="46.96462" lon="6.01273">
        <ele>419</ele>
        <time>2019-04-11T08:33:41Z</time>
      </trkpt>
      <trkpt lat="46.96431" lon="6.01273">
        <ele>421</ele>
        <time>2019-04-11T08:34:09Z</time>
      </trkpt>
      <trkpt lat="46.96412" lon="6.01272">
        <ele>427</ele>
        <time>2019-04-11T08:34:56Z</time>
      </trkpt>
      <trkpt lat="46.96397" lon="6.01277">
        <ele>429</ele>
        <time>2019-04-11T08:35:04Z</time>
      </trkpt>
      <trkpt lat="46.96388" lon="6.01263">
        <ele>429</ele>
        <time>2019-04-11T08:35:12Z</time>
      </trkpt>
      <trkpt lat="46.96401" lon="6.01254">
        <ele>429</ele>
        <time>2019-04-11T08:35:45Z</time>
      </trkpt>
      <trkpt lat="46.96404" lon="6.01256">
        <ele>430</ele>
        <time>2019-04-11T08:37:51Z</time>
      </trkpt>
      <trkpt lat="46.96414" lon="6.01264">
        <ele>429</ele>
        <time>2019-04-11T08:38:00Z</time>
      </trkpt>
      <trkpt lat="46.96377" lon="6.01257">
        <ele>445</ele>
        <time>2019-04-11T08:38:23Z</time>
      </trkpt>
      <trkpt lat="46.96405" lon="6.01264">
        <ele>468</ele>
        <time>2019-04-11T08:39:20Z</time>
      </trkpt>
      <trkpt lat="46.96409" lon="6.01275">
        <ele>477</ele>
        <time>2019-04-11T08:41:11Z</time>
      </trkpt>
      <trkpt lat="46.96417" lon="6.01283">
        <ele>478</ele>
        <time>2019-04-11T08:41:20Z</time>
      </trkpt>
      <trkpt lat="46.96424" lon="6.01289">
        <ele>476</ele>
        <time>2019-04-11T08:41:30Z</time>
      </trkpt>
      <trkpt lat="46.96433" lon="6.01285">
        <ele>475</ele>
        <time>2019-04-11T08:41:40Z</time>
      </trkpt>
      <trkpt lat="46.96443" lon="6.01285">
        <ele>478</ele>
        <time>2019-04-11T08:41:49Z</time>
      </trkpt>
      <trkpt lat="46.9646" lon="6.01272">
        <ele>478</ele>
        <time>2019-04-11T08:42:35Z</time>
      </trkpt>
      <trkpt lat="46.9647" lon="6.01267">
        <ele>477</ele>
        <time>2019-04-11T08:42:41Z</time>
      </trkpt>
      <trkpt lat="46.96485" lon="6.01273">
        <ele>455</ele>
        <time>2019-04-11T08:43:04Z</time>
      </trkpt>
      <trkpt lat="46.96494" lon="6.01278">
        <ele>441</ele>
        <time>2019-04-11T08:43:23Z</time>
      </trkpt>
      <trkpt lat="46.96505" lon="6.01275">
        <ele>431</ele>
        <time>2019-04-11T08:43:28Z</time>
      </trkpt>
      <trkpt lat="46.96512" lon="6.01271">
        <ele>429</ele>
        <time>2019-04-11T08:43:34Z</time>
      </trkpt>
      <trkpt lat="46.9652" lon="6.01262">
        <ele>427</ele>
        <time>2019-04-11T08:43:54Z</time>
      </trkpt>
      <trkpt lat="46.96515" lon="6.01286">
        <ele>424</ele>
        <time>2019-04-11T08:44:33Z</time>
      </trkpt>
      <trkpt lat="46.96525" lon="6.01294">
        <ele>423</ele>
        <time>2019-04-11T08:44:38Z</time>
      </trkpt>
      <trkpt lat="46.9653" lon="6.01278">
        <ele>422</ele>
        <time>2019-04-11T08:44:44Z</time>
      </trkpt>
      <trkpt lat="46.96532" lon="6.01266">
        <ele>421</ele>
        <time>2019-04-11T08:44:50Z</time>
      </trkpt>
      <trkpt lat="46.96531" lon="6.01248">
        <ele>417</ele>
        <time>2019-04-11T08:45:08Z</time>
      </trkpt>
      <trkpt lat="46.96541" lon="6.01251">
        <ele>409</ele>
        <time>2019-04-11T08:45:42Z</time>
      </trkpt>
      <trkpt lat="46.96549" lon="6.01251">
        <ele>406</ele>
        <time>2019-04-11T08:45:51Z</time>
      </trkpt>
      <trkpt lat="46.96556" lon="6.01243">
        <ele>405</ele>
        <time>2019-04-11T08:46:01Z</time>
      </trkpt>
      <trkpt lat="46.96568" lon="6.01238">
        <ele>402</ele>
        <time>2019-04-11T08:46:26Z</time>
      </trkpt>
      <trkpt lat="46.96572" lon="6.01219">
        <ele>400</ele>
        <time>2019-04-11T08:46:43Z</time>
      </trkpt>
      <trkpt lat="46.96575" lon="6.01197">
        <ele>400</ele>
        <time>2019-04-11T08:46:58Z</time>
      </trkpt>
      <trkpt lat="46.96594" lon="6.01187">
        <ele>401</ele>
        <time>2019-04-11T08:47:09Z</time>
      </trkpt>
      <trkpt lat="46.96603" lon="6.01171">
        <ele>400</ele>
        <time>2019-04-11T08:47:29Z</time>
      </trkpt>
      <trkpt lat="46.96622" lon="6.01159">
        <ele>405</ele>
        <time>2019-04-11T08:47:51Z</time>
      </trkpt>
      <trkpt lat="46.96631" lon="6.01154">
        <ele>404</ele>
        <time>2019-04-11T08:47:58Z</time>
      </trkpt>
      <trkpt lat="46.96639" lon="6.01149">
        <ele>408</ele>
        <time>2019-04-11T08:48:06Z</time>
      </trkpt>
      <trkpt lat="46.96652" lon="6.01149">
        <ele>411</ele>
        <time>2019-04-11T08:48:15Z</time>
      </trkpt>
      <trkpt lat="46.9666" lon="6.01147">
        <ele>411</ele>
        <time>2019-04-11T08:48:25Z</time>
      </trkpt>
      <trkpt lat="46.9667" lon="6.01134">
        <ele>406</ele>
        <time>2019-04-11T08:48:41Z</time>
      </trkpt>
      <trkpt lat="46.96681" lon="6.01123">
        <ele>406</ele>
        <time>2019-04-11T08:48:56Z</time>
      </trkpt>
      <trkpt lat="46.96695" lon="6.01118">
        <ele>405</ele>
        <time>2019-04-11T08:49:12Z</time>
      </trkpt>
      <trkpt lat="46.96709" lon="6.01122">
        <ele>403</ele>
        <time>2019-04-11T08:49:28Z</time>
      </trkpt>
      <trkpt lat="46.96716" lon="6.01131">
        <ele>401</ele>
        <time>2019-04-11T08:49:35Z</time>
      </trkpt>
      <trkpt lat="46.96725" lon="6.01135">
        <ele>401</ele>
        <time>2019-04-11T08:49:41Z</time>
      </trkpt>
      <trkpt lat="46.96731" lon="6.01146">
        <ele>399</ele>
        <time>2019-04-11T08:49:49Z</time>
      </trkpt>
      <trkpt lat="46.96741" lon="6.01157">
        <ele>399</ele>
        <time>2019-04-11T08:50:05Z</time>
      </trkpt>
      <trkpt lat="46.96739" lon="6.01175">
        <ele>395</ele>
        <time>2019-04-11T08:50:21Z</time>
      </trkpt>
      <trkpt lat="46.96742" lon="6.01189">
        <ele>394</ele>
        <time>2019-04-11T08:50:30Z</time>
      </trkpt>
      <trkpt lat="46.96747" lon="6.01202">
        <ele>393</ele>
        <time>2019-04-11T08:50:40Z</time>
      </trkpt>
      <trkpt lat="46.96755" lon="6.01211">
        <ele>395</ele>
        <time>2019-04-11T08:50:49Z</time>
      </trkpt>
      <trkpt lat="46.96762" lon="6.01218">
        <ele>396</ele>
        <time>2019-04-11T08:50:55Z</time>
      </trkpt>
      <trkpt lat="46.96777" lon="6.01215">
        <ele>399</ele>
        <time>2019-04-11T08:51:09Z</time>
      </trkpt>
      <trkpt lat="46.96784" lon="6.01204">
        <ele>399</ele>
        <time>2019-04-11T08:51:18Z</time>
      </trkpt>
      <trkpt lat="46.96788" lon="6.01192">
        <ele>401</ele>
        <time>2019-04-11T08:51:24Z</time>
      </trkpt>
      <trkpt lat="46.96791" lon="6.01179">
        <ele>403</ele>
        <time>2019-04-11T08:51:32Z</time>
      </trkpt>
      <trkpt lat="46.96805" lon="6.01159">
        <ele>409</ele>
        <time>2019-04-11T08:51:46Z</time>
      </trkpt>
      <trkpt lat="46.96803" lon="6.01145">
        <ele>411</ele>
        <time>2019-04-11T08:51:54Z</time>
      </trkpt>
      <trkpt lat="46.96807" lon="6.01126">
        <ele>413</ele>
        <time>2019-04-11T08:52:10Z</time>
      </trkpt>
      <trkpt lat="46.96811" lon="6.01114">
        <ele>411</ele>
        <time>2019-04-11T08:52:24Z</time>
      </trkpt>
      <trkpt lat="46.96821" lon="6.01117">
        <ele>409</ele>
        <time>2019-04-11T08:52:33Z</time>
      </trkpt>
      <trkpt lat="46.96838" lon="6.01115">
        <ele>409</ele>
        <time>2019-04-11T08:52:50Z</time>
      </trkpt>
      <trkpt lat="46.96848" lon="6.0111">
        <ele>410</ele>
        <time>2019-04-11T08:52:56Z</time>
      </trkpt>
      <trkpt lat="46.96849" lon="6.01092">
        <ele>410</ele>
        <time>2019-04-11T08:53:09Z</time>
      </trkpt>
      <trkpt lat="46.96849" lon="6.0108">
        <ele>408</ele>
        <time>2019-04-11T08:53:18Z</time>
      </trkpt>
      <trkpt lat="46.9686" lon="6.01072">
        <ele>405</ele>
        <time>2019-04-11T08:53:27Z</time>
      </trkpt>
      <trkpt lat="46.96866" lon="6.01063">
        <ele>404</ele>
        <time>2019-04-11T08:53:37Z</time>
      </trkpt>
      <trkpt lat="46.96874" lon="6.0105">
        <ele>404</ele>
        <time>2019-04-11T08:53:48Z</time>
      </trkpt>
      <trkpt lat="46.96878" lon="6.01037">
        <ele>410</ele>
        <time>2019-04-11T08:53:59Z</time>
      </trkpt>
      <trkpt lat="46.96877" lon="6.01026">
        <ele>418</ele>
        <time>2019-04-11T08:55:24Z</time>
      </trkpt>
      <trkpt lat="46.96879" lon="6.01019">
        <ele>420</ele>
        <time>2019-04-11T08:56:05Z</time>
      </trkpt>
      <trkpt lat="46.96886" lon="6.01008">
        <ele>421</ele>
        <time>2019-04-11T08:56:23Z</time>
      </trkpt>
      <trkpt lat="46.96901" lon="6.01">
        <ele>422</ele>
        <time>2019-04-11T08:56:44Z</time>
      </trkpt>
      <trkpt lat="46.96914" lon="6.00991">
        <ele>424</ele>
        <time>2019-04-11T08:57:04Z</time>
      </trkpt>
      <trkpt lat="46.96928" lon="6.00983">
        <ele>423</ele>
        <time>2019-04-11T08:57:49Z</time>
      </trkpt>
      <trkpt lat="46.96937" lon="6.00986">
        <ele>425</ele>
        <time>2019-04-11T08:58:09Z</time>
      </trkpt>
      <trkpt lat="46.96939" lon="6.01005">
        <ele>435</ele>
        <time>2019-04-11T09:00:05Z</time>
      </trkpt>
      <trkpt lat="46.96938" lon="6.01021">
        <ele>436</ele>
        <time>2019-04-11T09:00:20Z</time>
      </trkpt>
      <trkpt lat="46.96937" lon="6.01036">
        <ele>431</ele>
        <time>2019-04-11T09:00:38Z</time>
      </trkpt>
      <trkpt lat="46.96935" lon="6.01053">
        <ele>436</ele>
        <time>2019-04-11T09:00:56Z</time>
      </trkpt>
      <trkpt lat="46.96934" lon="6.01072">
        <ele>438</ele>
        <time>2019-04-11T09:01:15Z</time>
      </trkpt>
      <trkpt lat="46.96934" lon="6.01086">
        <ele>439</ele>
        <time>2019-04-11T09:01:25Z</time>
      </trkpt>
      <trkpt lat="46.96931" lon="6.011">
        <ele>446</ele>
        <time>2019-04-11T09:01:38Z</time>
      </trkpt>
      <trkpt lat="46.96932" lon="6.01115">
        <ele>448</ele>
        <time>2019-04-11T09:01:47Z</time>
      </trkpt>
      <trkpt lat="46.96933" lon="6.01143">
        <ele>451</ele>
        <time>2019-04-11T09:02:04Z</time>
      </trkpt>
      <trkpt lat="46.96929" lon="6.01168">
        <ele>456</ele>
        <time>2019-04-11T09:02:28Z</time>
      </trkpt>
      <trkpt lat="46.96923" lon="6.01183">
        <ele>456</ele>
        <time>2019-04-11T09:02:44Z</time>
      </trkpt>
      <trkpt lat="46.96896" lon="6.01198">
        <ele>463</ele>
        <time>2019-04-11T09:03:16Z</time>
      </trkpt>
      <trkpt lat="46.96887" lon="6.01207">
        <ele>463</ele>
        <time>2019-04-11T09:03:31Z</time>
      </trkpt>
      <trkpt lat="46.96875" lon="6.01217">
        <ele>465</ele>
        <time>2019-04-11T09:03:47Z</time>
      </trkpt>
      <trkpt lat="46.96869" lon="6.01228">
        <ele>468</ele>
        <time>2019-04-11T09:03:56Z</time>
      </trkpt>
      <trkpt lat="46.96863" lon="6.01234">
        <ele>468</ele>
        <time>2019-04-11T09:04:03Z</time>
      </trkpt>
      <trkpt lat="46.96863" lon="6.0124">
        <ele>468</ele>
        <time>2019-04-11T09:04:08Z</time>
      </trkpt>
      <trkpt lat="46.96861" lon="6.01252">
        <ele>468</ele>
        <time>2019-04-11T09:04:18Z</time>
      </trkpt>
      <trkpt lat="46.96858" lon="6.01259">
        <ele>468</ele>
        <time>2019-04-11T09:04:30Z</time>
      </trkpt>
      <trkpt lat="46.96855" lon="6.01266">
        <ele>469</ele>
        <time>2019-04-11T09:04:37Z</time>
      </trkpt>
      <trkpt lat="46.96849" lon="6.01271">
        <ele>470</ele>
        <time>2019-04-11T09:04:47Z</time>
      </trkpt>
      <trkpt lat="46.96845" lon="6.01282">
        <ele>468</ele>
        <time>2019-04-11T09:04:57Z</time>
      </trkpt>
      <trkpt lat="46.96841" lon="6.01287">
        <ele>469</ele>
        <time>2019-04-11T09:05:01Z</time>
      </trkpt>
      <trkpt lat="46.96836" lon="6.01299">
        <ele>469</ele>
        <time>2019-04-11T09:05:14Z</time>
      </trkpt>
      <trkpt lat="46.96836" lon="6.01316">
        <ele>472</ele>
        <time>2019-04-11T09:05:32Z</time>
      </trkpt>
      <trkpt lat="46.9683" lon="6.01333">
        <ele>474</ele>
        <time>2019-04-11T09:05:48Z</time>
      </trkpt>
      <trkpt lat="46.96826" lon="6.01348">
        <ele>474</ele>
        <time>2019-04-11T09:06:01Z</time>
      </trkpt>
      <trkpt lat="46.96824" lon="6.01365">
        <ele>477</ele>
        <time>2019-04-11T09:06:19Z</time>
      </trkpt>
      <trkpt lat="46.96817" lon="6.01382">
        <ele>480</ele>
        <time>2019-04-11T09:06:39Z</time>
      </trkpt>
      <trkpt lat="46.96807" lon="6.01415">
        <ele>486</ele>
        <time>2019-04-11T09:07:15Z</time>
      </trkpt>
      <trkpt lat="46.96803" lon="6.01429">
        <ele>488</ele>
        <time>2019-04-11T09:07:28Z</time>
      </trkpt>
      <trkpt lat="46.96798" lon="6.01444">
        <ele>488</ele>
        <time>2019-04-11T09:07:46Z</time>
      </trkpt>
      <trkpt lat="46.96794" lon="6.01457">
        <ele>494</ele>
        <time>2019-04-11T09:08:04Z</time>
      </trkpt>
      <trkpt lat="46.96793" lon="6.01473">
        <ele>495</ele>
        <time>2019-04-11T09:08:28Z</time>
      </trkpt>
      <trkpt lat="46.9679" lon="6.01487">
        <ele>503</ele>
        <time>2019-04-11T09:09:45Z</time>
      </trkpt>
      <trkpt lat="46.96779" lon="6.015">
        <ele>503</ele>
        <time>2019-04-11T09:10:01Z</time>
      </trkpt>
      <trkpt lat="46.9677" lon="6.01511">
        <ele>506</ele>
        <time>2019-04-11T09:10:13Z</time>
      </trkpt>
      <trkpt lat="46.96761" lon="6.01515">
        <ele>508</ele>
        <time>2019-04-11T09:10:22Z</time>
      </trkpt>
      <trkpt lat="46.96751" lon="6.01513">
        <ele>509</ele>
        <time>2019-04-11T09:10:30Z</time>
      </trkpt>
      <trkpt lat="46.9674" lon="6.01507">
        <ele>508</ele>
        <time>2019-04-11T09:10:41Z</time>
      </trkpt>
      <trkpt lat="46.9673" lon="6.01497">
        <ele>507</ele>
        <time>2019-04-11T09:10:54Z</time>
      </trkpt>
      <trkpt lat="46.96705" lon="6.01478">
        <ele>508</ele>
        <time>2019-04-11T09:11:25Z</time>
      </trkpt>
      <trkpt lat="46.96692" lon="6.01464">
        <ele>510</ele>
        <time>2019-04-11T09:11:36Z</time>
      </trkpt>
      <trkpt lat="46.96683" lon="6.01454">
        <ele>510</ele>
        <time>2019-04-11T09:11:52Z</time>
      </trkpt>
      <trkpt lat="46.9667" lon="6.01439">
        <ele>512</ele>
        <time>2019-04-11T09:12:11Z</time>
      </trkpt>
      <trkpt lat="46.9666" lon="6.01434">
        <ele>512</ele>
        <time>2019-04-11T09:12:19Z</time>
      </trkpt>
      <trkpt lat="46.96644" lon="6.01429">
        <ele>513</ele>
        <time>2019-04-11T09:12:35Z</time>
      </trkpt>
      <trkpt lat="46.96635" lon="6.01423">
        <ele>513</ele>
        <time>2019-04-11T09:12:43Z</time>
      </trkpt>
      <trkpt lat="46.96612" lon="6.01414">
        <ele>517</ele>
        <time>2019-04-11T09:13:08Z</time>
      </trkpt>
      <trkpt lat="46.96603" lon="6.01409">
        <ele>517</ele>
        <time>2019-04-11T09:13:15Z</time>
      </trkpt>
      <trkpt lat="46.96592" lon="6.01411">
        <ele>518</ele>
        <time>2019-04-11T09:13:30Z</time>
      </trkpt>
      <trkpt lat="46.96583" lon="6.01407">
        <ele>517</ele>
        <time>2019-04-11T09:13:49Z</time>
      </trkpt>
      <trkpt lat="46.9657" lon="6.01411">
        <ele>517</ele>
        <time>2019-04-11T09:14:05Z</time>
      </trkpt>
      <trkpt lat="46.96554" lon="6.01405">
        <ele>518</ele>
        <time>2019-04-11T09:14:23Z</time>
      </trkpt>
      <trkpt lat="46.96549" lon="6.01399">
        <ele>517</ele>
        <time>2019-04-11T09:16:14Z</time>
      </trkpt>
      <trkpt lat="46.96542" lon="6.01396">
        <ele>521</ele>
        <time>2019-04-11T09:16:25Z</time>
      </trkpt>
      <trkpt lat="46.96537" lon="6.01397">
        <ele>520</ele>
        <time>2019-04-11T09:16:29Z</time>
      </trkpt>
      <trkpt lat="46.96533" lon="6.01402">
        <ele>518</ele>
        <time>2019-04-11T09:16:37Z</time>
      </trkpt>
      <trkpt lat="46.96524" lon="6.01401">
        <ele>521</ele>
        <time>2019-04-11T09:16:49Z</time>
      </trkpt>
      <trkpt lat="46.96519" lon="6.01401">
        <ele>521</ele>
        <time>2019-04-11T09:16:54Z</time>
      </trkpt>
      <trkpt lat="46.96511" lon="6.01407">
        <ele>520</ele>
        <time>2019-04-11T09:17:05Z</time>
      </trkpt>
      <trkpt lat="46.96508" lon="6.01412">
        <ele>521</ele>
        <time>2019-04-11T09:17:16Z</time>
      </trkpt>
      <trkpt lat="46.96508" lon="6.01422">
        <ele>515</ele>
        <time>2019-04-11T09:18:21Z</time>
      </trkpt>
      <trkpt lat="46.96507" lon="6.01429">
        <ele>514</ele>
        <time>2019-04-11T09:18:27Z</time>
      </trkpt>
      <trkpt lat="46.96507" lon="6.01436">
        <ele>515</ele>
        <time>2019-04-11T09:18:32Z</time>
      </trkpt>
      <trkpt lat="46.96505" lon="6.01443">
        <ele>519</ele>
        <time>2019-04-11T09:18:36Z</time>
      </trkpt>
      <trkpt lat="46.96502" lon="6.01457">
        <ele>519</ele>
        <time>2019-04-11T09:18:45Z</time>
      </trkpt>
      <trkpt lat="46.96496" lon="6.0147">
        <ele>520</ele>
        <time>2019-04-11T09:18:52Z</time>
      </trkpt>
      <trkpt lat="46.96492" lon="6.01476">
        <ele>520</ele>
        <time>2019-04-11T09:18:56Z</time>
      </trkpt>
      <trkpt lat="46.96488" lon="6.01482">
        <ele>520</ele>
        <time>2019-04-11T09:19:00Z</time>
      </trkpt>
      <trkpt lat="46.96485" lon="6.01488">
        <ele>521</ele>
        <time>2019-04-11T09:19:04Z</time>
      </trkpt>
      <trkpt lat="46.96481" lon="6.01492">
        <ele>521</ele>
        <time>2019-04-11T09:19:08Z</time>
      </trkpt>
      <trkpt lat="46.96468" lon="6.01503">
        <ele>527</ele>
        <time>2019-04-11T09:19:22Z</time>
      </trkpt>
      <trkpt lat="46.9646" lon="6.01511">
        <ele>527</ele>
        <time>2019-04-11T09:19:32Z</time>
      </trkpt>
      <trkpt lat="46.96453" lon="6.01516">
        <ele>528</ele>
        <time>2019-04-11T09:19:41Z</time>
      </trkpt>
      <trkpt lat="46.96443" lon="6.01519">
        <ele>528</ele>
        <time>2019-04-11T09:19:51Z</time>
      </trkpt>
      <trkpt lat="46.96437" lon="6.01519">
        <ele>528</ele>
        <time>2019-04-11T09:19:56Z</time>
      </trkpt>
      <trkpt lat="46.96432" lon="6.01519">
        <ele>527</ele>
        <time>2019-04-11T09:20:00Z</time>
      </trkpt>
      <trkpt lat="46.96427" lon="6.01519">
        <ele>527</ele>
        <time>2019-04-11T09:20:05Z</time>
      </trkpt>
      <trkpt lat="46.96417" lon="6.01521">
        <ele>525</ele>
        <time>2019-04-11T09:20:16Z</time>
      </trkpt>
      <trkpt lat="46.96403" lon="6.01515">
        <ele>525</ele>
        <time>2019-04-11T09:20:36Z</time>
      </trkpt>
      <trkpt lat="46.96399" lon="6.01511">
        <ele>525</ele>
        <time>2019-04-11T09:20:41Z</time>
      </trkpt>
      <trkpt lat="46.96394" lon="6.01509">
        <ele>527</ele>
        <time>2019-04-11T09:20:46Z</time>
      </trkpt>
      <trkpt lat="46.96385" lon="6.01509">
        <ele>530</ele>
        <time>2019-04-11T09:20:55Z</time>
      </trkpt>
      <trkpt lat="46.96379" lon="6.01509">
        <ele>529</ele>
        <time>2019-04-11T09:20:59Z</time>
      </trkpt>
      <trkpt lat="46.96375" lon="6.0151">
        <ele>529</ele>
        <time>2019-04-11T09:21:03Z</time>
      </trkpt>
      <trkpt lat="46.9637" lon="6.01511">
        <ele>530</ele>
        <time>2019-04-11T09:21:08Z</time>
      </trkpt>
      <trkpt lat="46.96365" lon="6.01515">
        <ele>530</ele>
        <time>2019-04-11T09:21:16Z</time>
      </trkpt>
      <trkpt lat="46.96361" lon="6.0152">
        <ele>531</ele>
        <time>2019-04-11T09:21:21Z</time>
      </trkpt>
      <trkpt lat="46.96359" lon="6.01526">
        <ele>531</ele>
        <time>2019-04-11T09:21:25Z</time>
      </trkpt>
      <trkpt lat="46.96359" lon="6.01533">
        <ele>530</ele>
        <time>2019-04-11T09:21:30Z</time>
      </trkpt>
      <trkpt lat="46.96358" lon="6.01542">
        <ele>530</ele>
        <time>2019-04-11T09:21:37Z</time>
      </trkpt>
      <trkpt lat="46.96358" lon="6.01551">
        <ele>532</ele>
        <time>2019-04-11T09:21:45Z</time>
      </trkpt>
      <trkpt lat="46.96348" lon="6.01553">
        <ele>543</ele>
        <time>2019-04-11T09:23:55Z</time>
      </trkpt>
      <trkpt lat="46.96351" lon="6.01567">
        <ele>544</ele>
        <time>2019-04-11T09:25:18Z</time>
      </trkpt>
      <trkpt lat="46.96358" lon="6.01568">
        <ele>544</ele>
        <time>2019-04-11T09:26:51Z</time>
      </trkpt>
      <trkpt lat="46.96359" lon="6.01559">
        <ele>541</ele>
        <time>2019-04-11T09:27:27Z</time>
      </trkpt>
      <trkpt lat="46.96365" lon="6.01564">
        <ele>541</ele>
        <time>2019-04-11T09:27:33Z</time>
      </trkpt>
      <trkpt lat="46.96368" lon="6.0157">
        <ele>543</ele>
        <time>2019-04-11T09:27:38Z</time>
      </trkpt>
      <trkpt lat="46.96372" lon="6.01574">
        <ele>542</ele>
        <time>2019-04-11T09:27:42Z</time>
      </trkpt>
      <trkpt lat="46.96378" lon="6.01575">
        <ele>540</ele>
        <time>2019-04-11T09:27:48Z</time>
      </trkpt>
      <trkpt lat="46.96396" lon="6.01582">
        <ele>540</ele>
        <time>2019-04-11T09:28:08Z</time>
      </trkpt>
      <trkpt lat="46.96406" lon="6.01581">
        <ele>542</ele>
        <time>2019-04-11T09:28:15Z</time>
      </trkpt>
      <trkpt lat="46.96418" lon="6.01577">
        <ele>538</ele>
        <time>2019-04-11T09:28:31Z</time>
      </trkpt>
      <trkpt lat="46.96427" lon="6.0158">
        <ele>539</ele>
        <time>2019-04-11T09:28:37Z</time>
      </trkpt>
      <trkpt lat="46.96439" lon="6.01579">
        <ele>541</ele>
        <time>2019-04-11T09:28:49Z</time>
      </trkpt>
      <trkpt lat="46.96454" lon="6.0158">
        <ele>541</ele>
        <time>2019-04-11T09:29:05Z</time>
      </trkpt>
      <trkpt lat="46.96463" lon="6.01578">
        <ele>544</ele>
        <time>2019-04-11T09:29:14Z</time>
      </trkpt>
      <trkpt lat="46.96476" lon="6.0158">
        <ele>544</ele>
        <time>2019-04-11T09:29:23Z</time>
      </trkpt>
      <trkpt lat="46.96485" lon="6.01579">
        <ele>545</ele>
        <time>2019-04-11T09:29:32Z</time>
      </trkpt>
      <trkpt lat="46.96494" lon="6.01572">
        <ele>542</ele>
        <time>2019-04-11T09:29:41Z</time>
      </trkpt>
      <trkpt lat="46.96503" lon="6.01566">
        <ele>544</ele>
        <time>2019-04-11T09:29:48Z</time>
      </trkpt>
      <trkpt lat="46.96511" lon="6.0156">
        <ele>543</ele>
        <time>2019-04-11T09:29:57Z</time>
      </trkpt>
      <trkpt lat="46.96524" lon="6.01543">
        <ele>546</ele>
        <time>2019-04-11T09:30:15Z</time>
      </trkpt>
      <trkpt lat="46.96532" lon="6.01535">
        <ele>546</ele>
        <time>2019-04-11T09:30:23Z</time>
      </trkpt>
      <trkpt lat="46.96539" lon="6.01525">
        <ele>549</ele>
        <time>2019-04-11T09:30:31Z</time>
      </trkpt>
      <trkpt lat="46.96545" lon="6.01512">
        <ele>549</ele>
        <time>2019-04-11T09:30:45Z</time>
      </trkpt>
      <trkpt lat="46.96551" lon="6.01502">
        <ele>544</ele>
        <time>2019-04-11T09:30:54Z</time>
      </trkpt>
      <trkpt lat="46.96561" lon="6.01496">
        <ele>545</ele>
        <time>2019-04-11T09:31:03Z</time>
      </trkpt>
      <trkpt lat="46.96578" lon="6.01499">
        <ele>549</ele>
        <time>2019-04-11T09:31:22Z</time>
      </trkpt>
      <trkpt lat="46.96585" lon="6.01507">
        <ele>549</ele>
        <time>2019-04-11T09:31:32Z</time>
      </trkpt>
      <trkpt lat="46.96593" lon="6.01519">
        <ele>553</ele>
        <time>2019-04-11T09:31:47Z</time>
      </trkpt>
      <trkpt lat="46.96597" lon="6.01522">
        <ele>553</ele>
        <time>2019-04-11T09:31:52Z</time>
      </trkpt>
      <trkpt lat="46.96598" lon="6.01529">
        <ele>553</ele>
        <time>2019-04-11T09:31:57Z</time>
      </trkpt>
      <trkpt lat="46.96601" lon="6.01536">
        <ele>548</ele>
        <time>2019-04-11T09:32:05Z</time>
      </trkpt>
      <trkpt lat="46.96603" lon="6.01548">
        <ele>547</ele>
        <time>2019-04-11T09:32:17Z</time>
      </trkpt>
      <trkpt lat="46.96611" lon="6.01565">
        <ele>554</ele>
        <time>2019-04-11T09:32:35Z</time>
      </trkpt>
      <trkpt lat="46.96615" lon="6.0157">
        <ele>553</ele>
        <time>2019-04-11T09:32:40Z</time>
      </trkpt>
      <trkpt lat="46.96619" lon="6.01583">
        <ele>561</ele>
        <time>2019-04-11T09:32:54Z</time>
      </trkpt>
      <trkpt lat="46.9662" lon="6.01589">
        <ele>561</ele>
        <time>2019-04-11T09:32:59Z</time>
      </trkpt>
      <trkpt lat="46.96623" lon="6.01598">
        <ele>561</ele>
        <time>2019-04-11T09:33:07Z</time>
      </trkpt>
      <trkpt lat="46.96628" lon="6.01618">
        <ele>571</ele>
        <time>2019-04-11T09:33:24Z</time>
      </trkpt>
      <trkpt lat="46.96626" lon="6.01624">
        <ele>570</ele>
        <time>2019-04-11T09:33:28Z</time>
      </trkpt>
      <trkpt lat="46.96635" lon="6.01638">
        <ele>570</ele>
        <time>2019-04-11T09:33:48Z</time>
      </trkpt>
      <trkpt lat="46.9664" lon="6.01654">
        <ele>571</ele>
        <time>2019-04-11T09:34:36Z</time>
      </trkpt>
      <trkpt lat="46.96637" lon="6.01661">
        <ele>572</ele>
        <time>2019-04-11T09:35:12Z</time>
      </trkpt>
      <trkpt lat="46.96637" lon="6.01667">
        <ele>573</ele>
        <time>2019-04-11T09:35:17Z</time>
      </trkpt>
      <trkpt lat="46.96638" lon="6.01674">
        <ele>575</ele>
        <time>2019-04-11T09:35:21Z</time>
      </trkpt>
      <trkpt lat="46.96643" lon="6.01686">
        <ele>573</ele>
        <time>2019-04-11T09:35:30Z</time>
      </trkpt>
      <trkpt lat="46.96644" lon="6.01693">
        <ele>574</ele>
        <time>2019-04-11T09:35:34Z</time>
      </trkpt>
      <trkpt lat="46.96647" lon="6.01703">
        <ele>575</ele>
        <time>2019-04-11T09:35:42Z</time>
      </trkpt>
      <trkpt lat="46.96645" lon="6.01713">
        <ele>575</ele>
        <time>2019-04-11T09:35:46Z</time>
      </trkpt>
      <trkpt lat="46.96653" lon="6.01721">
        <ele>576</ele>
        <time>2019-04-11T09:35:53Z</time>
      </trkpt>
      <trkpt lat="46.9666" lon="6.01728">
        <ele>580</ele>
        <time>2019-04-11T09:36:01Z</time>
      </trkpt>
      <trkpt lat="46.96665" lon="6.01742">
        <ele>589</ele>
        <time>2019-04-11T09:36:14Z</time>
      </trkpt>
      <trkpt lat="46.96667" lon="6.01756">
        <ele>593</ele>
        <time>2019-04-11T09:36:26Z</time>
      </trkpt>
      <trkpt lat="46.96671" lon="6.01768">
        <ele>594</ele>
        <time>2019-04-11T09:36:36Z</time>
      </trkpt>
      <trkpt lat="46.96662" lon="6.01766">
        <ele>593</ele>
        <time>2019-04-11T09:36:56Z</time>
      </trkpt>
      <trkpt lat="46.96647" lon="6.01767">
        <ele>594</ele>
        <time>2019-04-11T09:37:23Z</time>
      </trkpt>
      <trkpt lat="46.96638" lon="6.01772">
        <ele>595</ele>
        <time>2019-04-11T09:37:35Z</time>
      </trkpt>
      <trkpt lat="46.96613" lon="6.01761">
        <ele>596</ele>
        <time>2019-04-11T09:38:06Z</time>
      </trkpt>
      <trkpt lat="46.96602" lon="6.01754">
        <ele>598</ele>
        <time>2019-04-11T09:38:31Z</time>
      </trkpt>
      <trkpt lat="46.96596" lon="6.01742">
        <ele>599</ele>
        <time>2019-04-11T09:38:40Z</time>
      </trkpt>
      <trkpt lat="46.96593" lon="6.0173">
        <ele>601</ele>
        <time>2019-04-11T09:39:00Z</time>
      </trkpt>
      <trkpt lat="46.96585" lon="6.01722">
        <ele>603</ele>
        <time>2019-04-11T09:39:12Z</time>
      </trkpt>
      <trkpt lat="46.96579" lon="6.01712">
        <ele>604</ele>
        <time>2019-04-11T09:39:22Z</time>
      </trkpt>
      <trkpt lat="46.96569" lon="6.01708">
        <ele>608</ele>
        <time>2019-04-11T09:39:34Z</time>
      </trkpt>
      <trkpt lat="46.9656" lon="6.01727">
        <ele>607</ele>
        <time>2019-04-11T09:39:55Z</time>
      </trkpt>
      <trkpt lat="46.96557" lon="6.01739">
        <ele>607</ele>
        <time>2019-04-11T09:40:03Z</time>
      </trkpt>
      <trkpt lat="46.96557" lon="6.01761">
        <ele>610</ele>
        <time>2019-04-11T09:40:20Z</time>
      </trkpt>
      <trkpt lat="46.9656" lon="6.01777">
        <ele>611</ele>
        <time>2019-04-11T09:40:32Z</time>
      </trkpt>
      <trkpt lat="46.96559" lon="6.01792">
        <ele>611</ele>
        <time>2019-04-11T09:40:48Z</time>
      </trkpt>
      <trkpt lat="46.96545" lon="6.01814">
        <ele>614</ele>
        <time>2019-04-11T09:41:20Z</time>
      </trkpt>
      <trkpt lat="46.96524" lon="6.01832">
        <ele>619</ele>
        <time>2019-04-11T09:41:52Z</time>
      </trkpt>
      <trkpt lat="46.96509" lon="6.01853">
        <ele>619</ele>
        <time>2019-04-11T09:42:15Z</time>
      </trkpt>
      <trkpt lat="46.96491" lon="6.01869">
        <ele>626</ele>
        <time>2019-04-11T09:42:46Z</time>
      </trkpt>
      <trkpt lat="46.96482" lon="6.01868">
        <ele>626</ele>
        <time>2019-04-11T09:42:55Z</time>
      </trkpt>
      <trkpt lat="46.96468" lon="6.01873">
        <ele>628</ele>
        <time>2019-04-11T09:43:14Z</time>
      </trkpt>
      <trkpt lat="46.96459" lon="6.0187">
        <ele>629</ele>
        <time>2019-04-11T09:43:24Z</time>
      </trkpt>
      <trkpt lat="46.9645" lon="6.01876">
        <ele>628</ele>
        <time>2019-04-11T09:43:38Z</time>
      </trkpt>
      <trkpt lat="46.96435" lon="6.01883">
        <ele>629</ele>
        <time>2019-04-11T09:43:54Z</time>
      </trkpt>
      <trkpt lat="46.96425" lon="6.01886">
        <ele>629</ele>
        <time>2019-04-11T09:44:02Z</time>
      </trkpt>
      <trkpt lat="46.96417" lon="6.01891">
        <ele>627</ele>
        <time>2019-04-11T09:44:11Z</time>
      </trkpt>
      <trkpt lat="46.96408" lon="6.01901">
        <ele>626</ele>
        <time>2019-04-11T09:44:19Z</time>
      </trkpt>
      <trkpt lat="46.96401" lon="6.01908">
        <ele>624</ele>
        <time>2019-04-11T09:44:26Z</time>
      </trkpt>
      <trkpt lat="46.96394" lon="6.01916">
        <ele>623</ele>
        <time>2019-04-11T09:44:35Z</time>
      </trkpt>
      <trkpt lat="46.96386" lon="6.01931">
        <ele>623</ele>
        <time>2019-04-11T09:44:50Z</time>
      </trkpt>
      <trkpt lat="46.96364" lon="6.01929">
        <ele>627</ele>
        <time>2019-04-11T09:45:12Z</time>
      </trkpt>
      <trkpt lat="46.96361" lon="6.01916">
        <ele>628</ele>
        <time>2019-04-11T09:45:27Z</time>
      </trkpt>
      <trkpt lat="46.9635" lon="6.01908">
        <ele>631</ele>
        <time>2019-04-11T09:45:45Z</time>
      </trkpt>
      <trkpt lat="46.96342" lon="6.01899">
        <ele>633</ele>
        <time>2019-04-11T09:46:02Z</time>
      </trkpt>
      <trkpt lat="46.96333" lon="6.01884">
        <ele>636</ele>
        <time>2019-04-11T09:46:18Z</time>
      </trkpt>
      <trkpt lat="46.96328" lon="6.01869">
        <ele>638</ele>
        <time>2019-04-11T09:46:29Z</time>
      </trkpt>
      <trkpt lat="46.96308" lon="6.01849">
        <ele>640</ele>
        <time>2019-04-11T09:46:58Z</time>
      </trkpt>
      <trkpt lat="46.963" lon="6.01844">
        <ele>638</ele>
        <time>2019-04-11T09:47:08Z</time>
      </trkpt>
      <trkpt lat="46.96291" lon="6.01833">
        <ele>637</ele>
        <time>2019-04-11T09:47:19Z</time>
      </trkpt>
      <trkpt lat="46.96279" lon="6.01823">
        <ele>640</ele>
        <time>2019-04-11T09:47:38Z</time>
      </trkpt>
      <trkpt lat="46.96268" lon="6.01815">
        <ele>639</ele>
        <time>2019-04-11T09:47:56Z</time>
      </trkpt>
      <trkpt lat="46.96258" lon="6.01812">
        <ele>638</ele>
        <time>2019-04-11T09:48:11Z</time>
      </trkpt>
      <trkpt lat="46.96246" lon="6.018">
        <ele>640</ele>
        <time>2019-04-11T09:48:24Z</time>
      </trkpt>
      <trkpt lat="46.96235" lon="6.01793">
        <ele>643</ele>
        <time>2019-04-11T09:48:40Z</time>
      </trkpt>
      <trkpt lat="46.96229" lon="6.01795">
        <ele>641</ele>
        <time>2019-04-11T09:48:48Z</time>
      </trkpt>
      <trkpt lat="46.96221" lon="6.01797">
        <ele>642</ele>
        <time>2019-04-11T09:48:58Z</time>
      </trkpt>
      <trkpt lat="46.96216" lon="6.01796">
        <ele>642</ele>
        <time>2019-04-11T09:49:03Z</time>
      </trkpt>
      <trkpt lat="46.96211" lon="6.01795">
        <ele>643</ele>
        <time>2019-04-11T09:49:07Z</time>
      </trkpt>
      <trkpt lat="46.96206" lon="6.01794">
        <ele>641</ele>
        <time>2019-04-11T09:49:11Z</time>
      </trkpt>
      <trkpt lat="46.96201" lon="6.01798">
        <ele>641</ele>
        <time>2019-04-11T09:49:18Z</time>
      </trkpt>
      <trkpt lat="46.96193" lon="6.01803">
        <ele>641</ele>
        <time>2019-04-11T09:49:29Z</time>
      </trkpt>
      <trkpt lat="46.96185" lon="6.01822">
        <ele>639</ele>
        <time>2019-04-11T09:49:45Z</time>
      </trkpt>
      <trkpt lat="46.96185" lon="6.01835">
        <ele>638</ele>
        <time>2019-04-11T09:49:53Z</time>
      </trkpt>
      <trkpt lat="46.96188" lon="6.01849">
        <ele>638</ele>
        <time>2019-04-11T09:50:02Z</time>
      </trkpt>
      <trkpt lat="46.96193" lon="6.01868">
        <ele>635</ele>
        <time>2019-04-11T09:50:15Z</time>
      </trkpt>
      <trkpt lat="46.96194" lon="6.01875">
        <ele>635</ele>
        <time>2019-04-11T09:50:20Z</time>
      </trkpt>
      <trkpt lat="46.962" lon="6.0189">
        <ele>635</ele>
        <time>2019-04-11T09:50:34Z</time>
      </trkpt>
      <trkpt lat="46.96204" lon="6.01908">
        <ele>636</ele>
        <time>2019-04-11T09:50:49Z</time>
      </trkpt>
      <trkpt lat="46.96206" lon="6.01914">
        <ele>636</ele>
        <time>2019-04-11T09:50:53Z</time>
      </trkpt>
      <trkpt lat="46.96207" lon="6.01921">
        <ele>637</ele>
        <time>2019-04-11T09:50:58Z</time>
      </trkpt>
      <trkpt lat="46.96209" lon="6.01928">
        <ele>637</ele>
        <time>2019-04-11T09:51:03Z</time>
      </trkpt>
      <trkpt lat="46.96211" lon="6.01936">
        <ele>636</ele>
        <time>2019-04-11T09:51:10Z</time>
      </trkpt>
      <trkpt lat="46.96213" lon="6.01943">
        <ele>636</ele>
        <time>2019-04-11T09:51:15Z</time>
      </trkpt>
      <trkpt lat="46.96217" lon="6.0195">
        <ele>636</ele>
        <time>2019-04-11T09:51:23Z</time>
      </trkpt>
      <trkpt lat="46.9622" lon="6.01956">
        <ele>636</ele>
        <time>2019-04-11T09:51:28Z</time>
      </trkpt>
      <trkpt lat="46.96227" lon="6.01967">
        <ele>636</ele>
        <time>2019-04-11T09:51:37Z</time>
      </trkpt>
      <trkpt lat="46.96229" lon="6.01972">
        <ele>635</ele>
        <time>2019-04-11T09:51:41Z</time>
      </trkpt>
      <trkpt lat="46.96232" lon="6.01978">
        <ele>635</ele>
        <time>2019-04-11T09:51:46Z</time>
      </trkpt>
      <trkpt lat="46.96235" lon="6.01983">
        <ele>635</ele>
        <time>2019-04-11T09:51:50Z</time>
      </trkpt>
      <trkpt lat="46.9624" lon="6.01987">
        <ele>635</ele>
        <time>2019-04-11T09:51:55Z</time>
      </trkpt>
      <trkpt lat="46.96243" lon="6.01995">
        <ele>635</ele>
        <time>2019-04-11T09:52:02Z</time>
      </trkpt>
      <trkpt lat="46.96248" lon="6.02001">
        <ele>634</ele>
        <time>2019-04-11T09:52:09Z</time>
      </trkpt>
      <trkpt lat="46.9625" lon="6.02007">
        <ele>632</ele>
        <time>2019-04-11T09:52:14Z</time>
      </trkpt>
      <trkpt lat="46.96253" lon="6.02016">
        <ele>631</ele>
        <time>2019-04-11T09:52:20Z</time>
      </trkpt>
      <trkpt lat="46.96257" lon="6.02029">
        <ele>633</ele>
        <time>2019-04-11T09:52:29Z</time>
      </trkpt>
      <trkpt lat="46.96258" lon="6.02036">
        <ele>631</ele>
        <time>2019-04-11T09:52:34Z</time>
      </trkpt>
      <trkpt lat="46.96262" lon="6.02044">
        <ele>632</ele>
        <time>2019-04-11T09:52:41Z</time>
      </trkpt>
      <trkpt lat="46.96264" lon="6.0205">
        <ele>632</ele>
        <time>2019-04-11T09:52:46Z</time>
      </trkpt>
      <trkpt lat="46.96266" lon="6.02057">
        <ele>632</ele>
        <time>2019-04-11T09:52:51Z</time>
      </trkpt>
      <trkpt lat="46.96267" lon="6.02064">
        <ele>632</ele>
        <time>2019-04-11T09:52:56Z</time>
      </trkpt>
      <trkpt lat="46.96269" lon="6.02071">
        <ele>631</ele>
        <time>2019-04-11T09:53:00Z</time>
      </trkpt>
      <trkpt lat="46.96272" lon="6.02077">
        <ele>632</ele>
        <time>2019-04-11T09:53:05Z</time>
      </trkpt>
      <trkpt lat="46.96277" lon="6.02092">
        <ele>629</ele>
        <time>2019-04-11T09:53:17Z</time>
      </trkpt>
      <trkpt lat="46.9628" lon="6.02099">
        <ele>629</ele>
        <time>2019-04-11T09:53:21Z</time>
      </trkpt>
      <trkpt lat="46.96285" lon="6.02128">
        <ele>631</ele>
        <time>2019-04-11T09:53:43Z</time>
      </trkpt>
      <trkpt lat="46.9629" lon="6.02137">
        <ele>633</ele>
        <time>2019-04-11T09:53:51Z</time>
      </trkpt>
      <trkpt lat="46.96297" lon="6.02157">
        <ele>633</ele>
        <time>2019-04-11T09:54:04Z</time>
      </trkpt>
      <trkpt lat="46.96307" lon="6.02202">
        <ele>638</ele>
        <time>2019-04-11T09:54:35Z</time>
      </trkpt>
      <trkpt lat="46.96308" lon="6.02209">
        <ele>638</ele>
        <time>2019-04-11T09:54:40Z</time>
      </trkpt>
      <trkpt lat="46.96311" lon="6.02216">
        <ele>638</ele>
        <time>2019-04-11T09:54:45Z</time>
      </trkpt>
      <trkpt lat="46.96315" lon="6.02224">
        <ele>638</ele>
        <time>2019-04-11T09:54:52Z</time>
      </trkpt>
      <trkpt lat="46.96322" lon="6.02235">
        <ele>639</ele>
        <time>2019-04-11T09:55:01Z</time>
      </trkpt>
      <trkpt lat="46.96326" lon="6.02239">
        <ele>639</ele>
        <time>2019-04-11T09:55:06Z</time>
      </trkpt>
      <trkpt lat="46.96329" lon="6.02245">
        <ele>639</ele>
        <time>2019-04-11T09:55:11Z</time>
      </trkpt>
      <trkpt lat="46.96332" lon="6.02252">
        <ele>638</ele>
        <time>2019-04-11T09:55:16Z</time>
      </trkpt>
      <trkpt lat="46.96339" lon="6.0226">
        <ele>640</ele>
        <time>2019-04-11T09:55:24Z</time>
      </trkpt>
      <trkpt lat="46.96342" lon="6.02267">
        <ele>639</ele>
        <time>2019-04-11T09:55:29Z</time>
      </trkpt>
      <trkpt lat="46.96346" lon="6.02274">
        <ele>638</ele>
        <time>2019-04-11T09:55:34Z</time>
      </trkpt>
      <trkpt lat="46.96349" lon="6.02279">
        <ele>638</ele>
        <time>2019-04-11T09:55:38Z</time>
      </trkpt>
      <trkpt lat="46.96352" lon="6.02285">
        <ele>639</ele>
        <time>2019-04-11T09:55:42Z</time>
      </trkpt>
      <trkpt lat="46.96356" lon="6.02298">
        <ele>637</ele>
        <time>2019-04-11T09:55:51Z</time>
      </trkpt>
      <trkpt lat="46.96359" lon="6.02303">
        <ele>638</ele>
        <time>2019-04-11T09:55:56Z</time>
      </trkpt>
      <trkpt lat="46.96367" lon="6.02311">
        <ele>639</ele>
        <time>2019-04-11T09:56:05Z</time>
      </trkpt>
      <trkpt lat="46.9637" lon="6.02316">
        <ele>639</ele>
        <time>2019-04-11T09:56:09Z</time>
      </trkpt>
      <trkpt lat="46.96373" lon="6.02322">
        <ele>640</ele>
        <time>2019-04-11T09:56:14Z</time>
      </trkpt>
      <trkpt lat="46.96376" lon="6.0233">
        <ele>641</ele>
        <time>2019-04-11T09:56:20Z</time>
      </trkpt>
      <trkpt lat="46.96379" lon="6.02337">
        <ele>641</ele>
        <time>2019-04-11T09:56:24Z</time>
      </trkpt>
      <trkpt lat="46.96388" lon="6.02353">
        <ele>640</ele>
        <time>2019-04-11T09:56:36Z</time>
      </trkpt>
      <trkpt lat="46.96391" lon="6.0236">
        <ele>640</ele>
        <time>2019-04-11T09:56:41Z</time>
      </trkpt>
      <trkpt lat="46.96393" lon="6.02365">
        <ele>639</ele>
        <time>2019-04-11T09:56:46Z</time>
      </trkpt>
      <trkpt lat="46.96396" lon="6.0237">
        <ele>640</ele>
        <time>2019-04-11T09:56:50Z</time>
      </trkpt>
      <trkpt lat="46.96402" lon="6.02382">
        <ele>641</ele>
        <time>2019-04-11T09:56:58Z</time>
      </trkpt>
      <trkpt lat="46.96405" lon="6.02388">
        <ele>642</ele>
        <time>2019-04-11T09:57:03Z</time>
      </trkpt>
      <trkpt lat="46.96409" lon="6.02394">
        <ele>643</ele>
        <time>2019-04-11T09:57:07Z</time>
      </trkpt>
      <trkpt lat="46.96412" lon="6.02399">
        <ele>643</ele>
        <time>2019-04-11T09:57:12Z</time>
      </trkpt>
      <trkpt lat="46.96415" lon="6.02407">
        <ele>642</ele>
        <time>2019-04-11T09:57:18Z</time>
      </trkpt>
      <trkpt lat="46.96419" lon="6.02413">
        <ele>643</ele>
        <time>2019-04-11T09:57:23Z</time>
      </trkpt>
      <trkpt lat="46.96423" lon="6.02418">
        <ele>642</ele>
        <time>2019-04-11T09:57:27Z</time>
      </trkpt>
      <trkpt lat="46.96427" lon="6.02423">
        <ele>641</ele>
        <time>2019-04-11T09:57:32Z</time>
      </trkpt>
      <trkpt lat="46.9643" lon="6.0243">
        <ele>641</ele>
        <time>2019-04-11T09:57:37Z</time>
      </trkpt>
      <trkpt lat="46.96433" lon="6.02436">
        <ele>641</ele>
        <time>2019-04-11T09:57:41Z</time>
      </trkpt>
      <trkpt lat="46.96437" lon="6.02442">
        <ele>641</ele>
        <time>2019-04-11T09:57:46Z</time>
      </trkpt>
      <trkpt lat="46.96439" lon="6.02449">
        <ele>640</ele>
        <time>2019-04-11T09:57:50Z</time>
      </trkpt>
      <trkpt lat="46.96441" lon="6.02456">
        <ele>641</ele>
        <time>2019-04-11T09:57:55Z</time>
      </trkpt>
      <trkpt lat="46.96444" lon="6.02462">
        <ele>640</ele>
        <time>2019-04-11T09:58:00Z</time>
      </trkpt>
      <trkpt lat="46.96447" lon="6.0247">
        <ele>641</ele>
        <time>2019-04-11T09:58:06Z</time>
      </trkpt>
      <trkpt lat="46.96453" lon="6.0248">
        <ele>643</ele>
        <time>2019-04-11T09:58:14Z</time>
      </trkpt>
      <trkpt lat="46.96455" lon="6.02486">
        <ele>643</ele>
        <time>2019-04-11T09:58:18Z</time>
      </trkpt>
      <trkpt lat="46.96461" lon="6.02498">
        <ele>641</ele>
        <time>2019-04-11T09:58:27Z</time>
      </trkpt>
      <trkpt lat="46.96465" lon="6.02503">
        <ele>642</ele>
        <time>2019-04-11T09:58:32Z</time>
      </trkpt>
      <trkpt lat="46.96467" lon="6.02509">
        <ele>641</ele>
        <time>2019-04-11T09:58:36Z</time>
      </trkpt>
      <trkpt lat="46.96475" lon="6.02529">
        <ele>642</ele>
        <time>2019-04-11T09:58:49Z</time>
      </trkpt>
      <trkpt lat="46.9648" lon="6.02538">
        <ele>644</ele>
        <time>2019-04-11T09:58:57Z</time>
      </trkpt>
      <trkpt lat="46.96486" lon="6.02548">
        <ele>645</ele>
        <time>2019-04-11T09:59:07Z</time>
      </trkpt>
      <trkpt lat="46.96489" lon="6.02556">
        <ele>644</ele>
        <time>2019-04-11T09:59:12Z</time>
      </trkpt>
      <trkpt lat="46.96491" lon="6.02562">
        <ele>643</ele>
        <time>2019-04-11T09:59:16Z</time>
      </trkpt>
      <trkpt lat="46.96501" lon="6.0258">
        <ele>644</ele>
        <time>2019-04-11T09:59:30Z</time>
      </trkpt>
      <trkpt lat="46.96506" lon="6.02585">
        <ele>645</ele>
        <time>2019-04-11T09:59:34Z</time>
      </trkpt>
      <trkpt lat="46.96509" lon="6.02589">
        <ele>645</ele>
        <time>2019-04-11T09:59:38Z</time>
      </trkpt>
      <trkpt lat="46.96517" lon="6.02599">
        <ele>644</ele>
        <time>2019-04-11T09:59:47Z</time>
      </trkpt>
      <trkpt lat="46.96523" lon="6.02609">
        <ele>644</ele>
        <time>2019-04-11T09:59:55Z</time>
      </trkpt>
      <trkpt lat="46.96529" lon="6.02619">
        <ele>645</ele>
        <time>2019-04-11T10:00:03Z</time>
      </trkpt>
      <trkpt lat="46.96532" lon="6.02635">
        <ele>646</ele>
        <time>2019-04-11T10:00:16Z</time>
      </trkpt>
      <trkpt lat="46.96536" lon="6.02656">
        <ele>649</ele>
        <time>2019-04-11T10:00:31Z</time>
      </trkpt>
      <trkpt lat="46.96542" lon="6.02664">
        <ele>653</ele>
        <time>2019-04-11T10:00:45Z</time>
      </trkpt>
      <trkpt lat="46.96536" lon="6.0268">
        <ele>655</ele>
        <time>2019-04-11T10:01:59Z</time>
      </trkpt>
      <trkpt lat="46.96532" lon="6.02694">
        <ele>659</ele>
        <time>2019-04-11T10:02:11Z</time>
      </trkpt>
      <trkpt lat="46.96525" lon="6.02703">
        <ele>660</ele>
        <time>2019-04-11T10:02:21Z</time>
      </trkpt>
      <trkpt lat="46.96507" lon="6.02707">
        <ele>664</ele>
        <time>2019-04-11T10:02:43Z</time>
      </trkpt>
      <trkpt lat="46.96497" lon="6.02707">
        <ele>663</ele>
        <time>2019-04-11T10:02:55Z</time>
      </trkpt>
      <trkpt lat="46.96479" lon="6.02718">
        <ele>662</ele>
        <time>2019-04-11T10:03:13Z</time>
      </trkpt>
      <trkpt lat="46.96468" lon="6.02724">
        <ele>663</ele>
        <time>2019-04-11T10:03:24Z</time>
      </trkpt>
      <trkpt lat="46.96459" lon="6.0274">
        <ele>665</ele>
        <time>2019-04-11T10:03:41Z</time>
      </trkpt>
      <trkpt lat="46.96459" lon="6.02755">
        <ele>669</ele>
        <time>2019-04-11T10:04:41Z</time>
      </trkpt>
      <trkpt lat="46.96478" lon="6.02775">
        <ele>674</ele>
        <time>2019-04-11T10:05:08Z</time>
      </trkpt>
      <trkpt lat="46.96481" lon="6.02788">
        <ele>675</ele>
        <time>2019-04-11T10:05:11Z</time>
      </trkpt>
      <trkpt lat="46.96489" lon="6.02797">
        <ele>676</ele>
        <time>2019-04-11T10:05:24Z</time>
      </trkpt>
      <trkpt lat="46.96495" lon="6.02814">
        <ele>675</ele>
        <time>2019-04-11T10:05:48Z</time>
      </trkpt>
      <trkpt lat="46.96504" lon="6.02821">
        <ele>678</ele>
        <time>2019-04-11T10:05:57Z</time>
      </trkpt>
      <trkpt lat="46.96521" lon="6.02835">
        <ele>680</ele>
        <time>2019-04-11T10:06:18Z</time>
      </trkpt>
      <trkpt lat="46.96533" lon="6.02859">
        <ele>682</ele>
        <time>2019-04-11T10:06:42Z</time>
      </trkpt>
      <trkpt lat="46.96549" lon="6.02877">
        <ele>684</ele>
        <time>2019-04-11T10:07:02Z</time>
      </trkpt>
      <trkpt lat="46.96561" lon="6.02896">
        <ele>688</ele>
        <time>2019-04-11T10:07:19Z</time>
      </trkpt>
      <trkpt lat="46.96569" lon="6.0291">
        <ele>690</ele>
        <time>2019-04-11T10:07:35Z</time>
      </trkpt>
      <trkpt lat="46.96577" lon="6.02915">
        <ele>692</ele>
        <time>2019-04-11T10:07:42Z</time>
      </trkpt>
      <trkpt lat="46.96587" lon="6.02925">
        <ele>693</ele>
        <time>2019-04-11T10:07:58Z</time>
      </trkpt>
      <trkpt lat="46.96601" lon="6.02951">
        <ele>695</ele>
        <time>2019-04-11T10:08:22Z</time>
      </trkpt>
      <trkpt lat="46.96611" lon="6.02962">
        <ele>697</ele>
        <time>2019-04-11T10:08:31Z</time>
      </trkpt>
      <trkpt lat="46.96625" lon="6.02979">
        <ele>697</ele>
        <time>2019-04-11T10:08:45Z</time>
      </trkpt>
      <trkpt lat="46.96629" lon="6.02992">
        <ele>697</ele>
        <time>2019-04-11T10:08:53Z</time>
      </trkpt>
      <trkpt lat="46.96634" lon="6.03019">
        <ele>699</ele>
        <time>2019-04-11T10:09:08Z</time>
      </trkpt>
      <trkpt lat="46.96644" lon="6.03034">
        <ele>700</ele>
        <time>2019-04-11T10:09:24Z</time>
      </trkpt>
      <trkpt lat="46.96658" lon="6.03041">
        <ele>700</ele>
        <time>2019-04-11T10:09:39Z</time>
      </trkpt>
      <trkpt lat="46.96665" lon="6.03051">
        <ele>701</ele>
        <time>2019-04-11T10:09:48Z</time>
      </trkpt>
      <trkpt lat="46.96673" lon="6.03056">
        <ele>702</ele>
        <time>2019-04-11T10:09:56Z</time>
      </trkpt>
      <trkpt lat="46.96679" lon="6.03068">
        <ele>702</ele>
        <time>2019-04-11T10:10:03Z</time>
      </trkpt>
      <trkpt lat="46.96683" lon="6.03079">
        <ele>702</ele>
        <time>2019-04-11T10:10:10Z</time>
      </trkpt>
      <trkpt lat="46.96692" lon="6.0309">
        <ele>702</ele>
        <time>2019-04-11T10:10:22Z</time>
      </trkpt>
      <trkpt lat="46.96696" lon="6.03105">
        <ele>704</ele>
        <time>2019-04-11T10:10:36Z</time>
      </trkpt>
      <trkpt lat="46.96707" lon="6.03128">
        <ele>703</ele>
        <time>2019-04-11T10:10:55Z</time>
      </trkpt>
      <trkpt lat="46.96707" lon="6.03142">
        <ele>704</ele>
        <time>2019-04-11T10:11:03Z</time>
      </trkpt>
      <trkpt lat="46.96713" lon="6.03165">
        <ele>704</ele>
        <time>2019-04-11T10:11:21Z</time>
      </trkpt>
      <trkpt lat="46.96714" lon="6.03179">
        <ele>704</ele>
        <time>2019-04-11T10:11:29Z</time>
      </trkpt>
      <trkpt lat="46.96723" lon="6.03204">
        <ele>705</ele>
        <time>2019-04-11T10:11:48Z</time>
      </trkpt>
      <trkpt lat="46.96729" lon="6.03217">
        <ele>704</ele>
        <time>2019-04-11T10:12:00Z</time>
      </trkpt>
      <trkpt lat="46.96734" lon="6.03229">
        <ele>704</ele>
        <time>2019-04-11T10:12:09Z</time>
      </trkpt>
      <trkpt lat="46.96743" lon="6.03244">
        <ele>702</ele>
        <time>2019-04-11T10:12:23Z</time>
      </trkpt>
      <trkpt lat="46.96747" lon="6.03257">
        <ele>701</ele>
        <time>2019-04-11T10:12:32Z</time>
      </trkpt>
      <trkpt lat="46.96749" lon="6.03277">
        <ele>698</ele>
        <time>2019-04-11T10:12:45Z</time>
      </trkpt>
      <trkpt lat="46.96758" lon="6.03294">
        <ele>698</ele>
        <time>2019-04-11T10:13:00Z</time>
      </trkpt>
      <trkpt lat="46.96763" lon="6.03306">
        <ele>698</ele>
        <time>2019-04-11T10:13:09Z</time>
      </trkpt>
      <trkpt lat="46.96768" lon="6.03322">
        <ele>701</ele>
        <time>2019-04-11T10:13:24Z</time>
      </trkpt>
      <trkpt lat="46.96771" lon="6.03335">
        <ele>702</ele>
        <time>2019-04-11T10:13:33Z</time>
      </trkpt>
      <trkpt lat="46.96774" lon="6.03348">
        <ele>701</ele>
        <time>2019-04-11T10:13:42Z</time>
      </trkpt>
      <trkpt lat="46.96774" lon="6.03376">
        <ele>702</ele>
        <time>2019-04-11T10:13:59Z</time>
      </trkpt>
      <trkpt lat="46.9678" lon="6.03402">
        <ele>703</ele>
        <time>2019-04-11T10:14:16Z</time>
      </trkpt>
      <trkpt lat="46.96785" lon="6.03415">
        <ele>704</ele>
        <time>2019-04-11T10:14:25Z</time>
      </trkpt>
      <trkpt lat="46.96786" lon="6.03428">
        <ele>703</ele>
        <time>2019-04-11T10:14:34Z</time>
      </trkpt>
      <trkpt lat="46.96792" lon="6.0344">
        <ele>702</ele>
        <time>2019-04-11T10:14:42Z</time>
      </trkpt>
      <trkpt lat="46.96796" lon="6.03452">
        <ele>703</ele>
        <time>2019-04-11T10:14:51Z</time>
      </trkpt>
      <trkpt lat="46.96808" lon="6.03474">
        <ele>703</ele>
        <time>2019-04-11T10:15:07Z</time>
      </trkpt>
      <trkpt lat="46.96814" lon="6.03485">
        <ele>703</ele>
        <time>2019-04-11T10:15:15Z</time>
      </trkpt>
      <trkpt lat="46.96821" lon="6.03495">
        <ele>703</ele>
        <time>2019-04-11T10:15:23Z</time>
      </trkpt>
      <trkpt lat="46.96828" lon="6.03505">
        <ele>704</ele>
        <time>2019-04-11T10:15:31Z</time>
      </trkpt>
      <trkpt lat="46.96835" lon="6.03514">
        <ele>705</ele>
        <time>2019-04-11T10:15:39Z</time>
      </trkpt>
      <trkpt lat="46.96842" lon="6.03525">
        <ele>704</ele>
        <time>2019-04-11T10:15:47Z</time>
      </trkpt>
      <trkpt lat="46.96847" lon="6.03537">
        <ele>706</ele>
        <time>2019-04-11T10:15:54Z</time>
      </trkpt>
      <trkpt lat="46.96853" lon="6.03548">
        <ele>707</ele>
        <time>2019-04-11T10:16:02Z</time>
      </trkpt>
      <trkpt lat="46.9686" lon="6.03557">
        <ele>709</ele>
        <time>2019-04-11T10:16:12Z</time>
      </trkpt>
      <trkpt lat="46.96868" lon="6.03576">
        <ele>712</ele>
        <time>2019-04-11T10:16:28Z</time>
      </trkpt>
      <trkpt lat="46.96874" lon="6.03587">
        <ele>712</ele>
        <time>2019-04-11T10:16:36Z</time>
      </trkpt>
      <trkpt lat="46.96881" lon="6.03596">
        <ele>714</ele>
        <time>2019-04-11T10:16:45Z</time>
      </trkpt>
      <trkpt lat="46.9689" lon="6.03603">
        <ele>714</ele>
        <time>2019-04-11T10:16:52Z</time>
      </trkpt>
      <trkpt lat="46.96899" lon="6.03602">
        <ele>714</ele>
        <time>2019-04-11T10:17:02Z</time>
      </trkpt>
      <trkpt lat="46.96908" lon="6.03606">
        <ele>715</ele>
        <time>2019-04-11T10:17:12Z</time>
      </trkpt>
      <trkpt lat="46.96923" lon="6.03623">
        <ele>715</ele>
        <time>2019-04-11T10:17:29Z</time>
      </trkpt>
      <trkpt lat="46.96932" lon="6.03627">
        <ele>715</ele>
        <time>2019-04-11T10:17:37Z</time>
      </trkpt>
      <trkpt lat="46.96941" lon="6.03633">
        <ele>715</ele>
        <time>2019-04-11T10:17:45Z</time>
      </trkpt>
      <trkpt lat="46.9695" lon="6.03637">
        <ele>715</ele>
        <time>2019-04-11T10:17:53Z</time>
      </trkpt>
      <trkpt lat="46.96958" lon="6.03641">
        <ele>712</ele>
        <time>2019-04-11T10:18:01Z</time>
      </trkpt>
      <trkpt lat="46.96971" lon="6.0365">
        <ele>710</ele>
        <time>2019-04-11T10:18:15Z</time>
      </trkpt>
      <trkpt lat="46.96976" lon="6.03654">
        <ele>710</ele>
        <time>2019-04-11T10:18:20Z</time>
      </trkpt>
      <trkpt lat="46.96981" lon="6.03655">
        <ele>709</ele>
        <time>2019-04-11T10:18:24Z</time>
      </trkpt>
      <trkpt lat="46.96984" lon="6.03659">
        <ele>709</ele>
        <time>2019-04-11T10:18:28Z</time>
      </trkpt>
      <trkpt lat="46.96988" lon="6.03664">
        <ele>708</ele>
        <time>2019-04-11T10:18:33Z</time>
      </trkpt>
      <trkpt lat="46.96993" lon="6.03672">
        <ele>710</ele>
        <time>2019-04-11T10:18:40Z</time>
      </trkpt>
      <trkpt lat="46.96997" lon="6.03676">
        <ele>710</ele>
        <time>2019-04-11T10:18:44Z</time>
      </trkpt>
      <trkpt lat="46.97003" lon="6.03679">
        <ele>710</ele>
        <time>2019-04-11T10:18:48Z</time>
      </trkpt>
      <trkpt lat="46.97007" lon="6.03681">
        <ele>709</ele>
        <time>2019-04-11T10:18:51Z</time>
      </trkpt>
      <trkpt lat="46.97012" lon="6.03693">
        <ele>708</ele>
        <time>2019-04-11T10:19:01Z</time>
      </trkpt>
      <trkpt lat="46.97016" lon="6.03702">
        <ele>710</ele>
        <time>2019-04-11T10:19:09Z</time>
      </trkpt>
      <trkpt lat="46.97019" lon="6.03707">
        <ele>710</ele>
        <time>2019-04-11T10:19:14Z</time>
      </trkpt>
      <trkpt lat="46.97025" lon="6.0372">
        <ele>709</ele>
        <time>2019-04-11T10:19:23Z</time>
      </trkpt>
      <trkpt lat="46.97032" lon="6.03735">
        <ele>710</ele>
        <time>2019-04-11T10:19:37Z</time>
      </trkpt>
      <trkpt lat="46.97041" lon="6.03743">
        <ele>710</ele>
        <time>2019-04-11T10:19:45Z</time>
      </trkpt>
      <trkpt lat="46.97049" lon="6.03751">
        <ele>709</ele>
        <time>2019-04-11T10:19:52Z</time>
      </trkpt>
      <trkpt lat="46.97056" lon="6.03759">
        <ele>710</ele>
        <time>2019-04-11T10:20:00Z</time>
      </trkpt>
      <trkpt lat="46.97065" lon="6.03765">
        <ele>710</ele>
        <time>2019-04-11T10:20:09Z</time>
      </trkpt>
      <trkpt lat="46.97075" lon="6.03766">
        <ele>709</ele>
        <time>2019-04-11T10:20:17Z</time>
      </trkpt>
      <trkpt lat="46.97084" lon="6.03767">
        <ele>710</ele>
        <time>2019-04-11T10:20:25Z</time>
      </trkpt>
      <trkpt lat="46.97095" lon="6.03766">
        <ele>709</ele>
        <time>2019-04-11T10:20:35Z</time>
      </trkpt>
      <trkpt lat="46.97114" lon="6.0376">
        <ele>705</ele>
        <time>2019-04-11T10:20:51Z</time>
      </trkpt>
      <trkpt lat="46.97138" lon="6.03739">
        <ele>700</ele>
        <time>2019-04-11T10:21:13Z</time>
      </trkpt>
      <trkpt lat="46.97168" lon="6.03705">
        <ele>693</ele>
        <time>2019-04-11T10:21:46Z</time>
      </trkpt>
      <trkpt lat="46.97172" lon="6.03702">
        <ele>692</ele>
        <time>2019-04-11T10:21:50Z</time>
      </trkpt>
      <trkpt lat="46.97176" lon="6.03697">
        <ele>691</ele>
        <time>2019-04-11T10:21:55Z</time>
      </trkpt>
      <trkpt lat="46.9718" lon="6.03693">
        <ele>692</ele>
        <time>2019-04-11T10:21:59Z</time>
      </trkpt>
      <trkpt lat="46.97198" lon="6.03668">
        <ele>688</ele>
        <time>2019-04-11T10:22:18Z</time>
      </trkpt>
      <trkpt lat="46.97201" lon="6.03663">
        <ele>687</ele>
        <time>2019-04-11T10:22:22Z</time>
      </trkpt>
      <trkpt lat="46.97204" lon="6.03658">
        <ele>688</ele>
        <time>2019-04-11T10:22:26Z</time>
      </trkpt>
      <trkpt lat="46.9721" lon="6.03647">
        <ele>686</ele>
        <time>2019-04-11T10:22:34Z</time>
      </trkpt>
      <trkpt lat="46.97215" lon="6.03635">
        <ele>685</ele>
        <time>2019-04-11T10:22:42Z</time>
      </trkpt>
      <trkpt lat="46.97216" lon="6.03628">
        <ele>685</ele>
        <time>2019-04-11T10:22:47Z</time>
      </trkpt>
      <trkpt lat="46.97219" lon="6.0362">
        <ele>684</ele>
        <time>2019-04-11T10:22:52Z</time>
      </trkpt>
      <trkpt lat="46.97222" lon="6.03615">
        <ele>684</ele>
        <time>2019-04-11T10:22:56Z</time>
      </trkpt>
      <trkpt lat="46.97236" lon="6.03605">
        <ele>686</ele>
        <time>2019-04-11T10:23:10Z</time>
      </trkpt>
      <trkpt lat="46.97241" lon="6.03604">
        <ele>686</ele>
        <time>2019-04-11T10:23:15Z</time>
      </trkpt>
      <trkpt lat="46.97246" lon="6.03602">
        <ele>688</ele>
        <time>2019-04-11T10:23:20Z</time>
      </trkpt>
      <trkpt lat="46.97261" lon="6.03586">
        <ele>691</ele>
        <time>2019-04-11T10:23:41Z</time>
      </trkpt>
      <trkpt lat="46.97269" lon="6.03577">
        <ele>691</ele>
        <time>2019-04-11T10:23:49Z</time>
      </trkpt>
      <trkpt lat="46.97273" lon="6.03564">
        <ele>691</ele>
        <time>2019-04-11T10:23:57Z</time>
      </trkpt>
      <trkpt lat="46.97273" lon="6.0355">
        <ele>688</ele>
        <time>2019-04-11T10:24:05Z</time>
      </trkpt>
      <trkpt lat="46.97272" lon="6.03532">
        <ele>691</ele>
        <time>2019-04-11T10:24:20Z</time>
      </trkpt>
      <trkpt lat="46.9727" lon="6.03508">
        <ele>691</ele>
        <time>2019-04-11T10:24:37Z</time>
      </trkpt>
      <trkpt lat="46.97267" lon="6.03489">
        <ele>691</ele>
        <time>2019-04-11T10:24:50Z</time>
      </trkpt>
      <trkpt lat="46.97268" lon="6.03474">
        <ele>690</ele>
        <time>2019-04-11T10:25:01Z</time>
      </trkpt>
      <trkpt lat="46.97261" lon="6.03455">
        <ele>693</ele>
        <time>2019-04-11T10:25:19Z</time>
      </trkpt>
      <trkpt lat="46.97262" lon="6.03438">
        <ele>695</ele>
        <time>2019-04-11T10:25:30Z</time>
      </trkpt>
      <trkpt lat="46.97262" lon="6.03425">
        <ele>696</ele>
        <time>2019-04-11T10:25:37Z</time>
      </trkpt>
      <trkpt lat="46.97258" lon="6.03411">
        <ele>699</ele>
        <time>2019-04-11T10:25:45Z</time>
      </trkpt>
      <trkpt lat="46.97256" lon="6.03393">
        <ele>702</ele>
        <time>2019-04-11T10:26:00Z</time>
      </trkpt>
      <trkpt lat="46.9726" lon="6.03374">
        <ele>701</ele>
        <time>2019-04-11T10:26:14Z</time>
      </trkpt>
      <trkpt lat="46.97266" lon="6.03342">
        <ele>706</ele>
        <time>2019-04-11T10:26:40Z</time>
      </trkpt>
      <trkpt lat="46.97263" lon="6.03327">
        <ele>707</ele>
        <time>2019-04-11T10:26:54Z</time>
      </trkpt>
      <trkpt lat="46.97265" lon="6.03314">
        <ele>707</ele>
        <time>2019-04-11T10:27:04Z</time>
      </trkpt>
      <trkpt lat="46.97268" lon="6.033">
        <ele>707</ele>
        <time>2019-04-11T10:27:13Z</time>
      </trkpt>
      <trkpt lat="46.97268" lon="6.03287">
        <ele>709</ele>
        <time>2019-04-11T10:27:30Z</time>
      </trkpt>
      <trkpt lat="46.97268" lon="6.03262">
        <ele>718</ele>
        <time>2019-04-11T10:30:07Z</time>
      </trkpt>
      <trkpt lat="46.97282" lon="6.03237">
        <ele>720</ele>
        <time>2019-04-11T10:30:33Z</time>
      </trkpt>
      <trkpt lat="46.9729" lon="6.03249">
        <ele>720</ele>
        <time>2019-04-11T10:30:53Z</time>
      </trkpt>
      <trkpt lat="46.97294" lon="6.03268">
        <ele>724</ele>
        <time>2019-04-11T10:31:10Z</time>
      </trkpt>
      <trkpt lat="46.97299" lon="6.0328">
        <ele>727</ele>
        <time>2019-04-11T10:31:19Z</time>
      </trkpt>
      <trkpt lat="46.973" lon="6.03295">
        <ele>729</ele>
        <time>2019-04-11T10:31:34Z</time>
      </trkpt>
      <trkpt lat="46.97308" lon="6.03304">
        <ele>729</ele>
        <time>2019-04-11T10:31:44Z</time>
      </trkpt>
      <trkpt lat="46.97313" lon="6.03314">
        <ele>729</ele>
        <time>2019-04-11T10:31:53Z</time>
      </trkpt>
      <trkpt lat="46.97317" lon="6.0335">
        <ele>730</ele>
        <time>2019-04-11T10:32:25Z</time>
      </trkpt>
      <trkpt lat="46.97322" lon="6.03363">
        <ele>734</ele>
        <time>2019-04-11T10:32:38Z</time>
      </trkpt>
      <trkpt lat="46.97334" lon="6.03364">
        <ele>739</ele>
        <time>2019-04-11T10:32:57Z</time>
      </trkpt>
      <trkpt lat="46.97341" lon="6.03353">
        <ele>741</ele>
        <time>2019-04-11T10:33:06Z</time>
      </trkpt>
      <trkpt lat="46.97341" lon="6.0334">
        <ele>741</ele>
        <time>2019-04-11T10:33:16Z</time>
      </trkpt>
      <trkpt lat="46.97346" lon="6.03326">
        <ele>743</ele>
        <time>2019-04-11T10:33:26Z</time>
      </trkpt>
      <trkpt lat="46.97351" lon="6.03318">
        <ele>743</ele>
        <time>2019-04-11T10:33:36Z</time>
      </trkpt>
      <trkpt lat="46.97358" lon="6.03313">
        <ele>746</ele>
        <time>2019-04-11T10:33:48Z</time>
      </trkpt>
      <trkpt lat="46.97359" lon="6.03306">
        <ele>746</ele>
        <time>2019-04-11T10:34:17Z</time>
      </trkpt>
      <trkpt lat="46.97359" lon="6.03297">
        <ele>746</ele>
        <time>2019-04-11T10:34:29Z</time>
      </trkpt>
      <trkpt lat="46.97356" lon="6.03282">
        <ele>747</ele>
        <time>2019-04-11T10:34:42Z</time>
      </trkpt>
      <trkpt lat="46.97355" lon="6.03274">
        <ele>746</ele>
        <time>2019-04-11T10:34:47Z</time>
      </trkpt>
      <trkpt lat="46.97352" lon="6.03254">
        <ele>748</ele>
        <time>2019-04-11T10:35:05Z</time>
      </trkpt>
      <trkpt lat="46.97351" lon="6.03246">
        <ele>745</ele>
        <time>2019-04-11T10:35:17Z</time>
      </trkpt>
      <trkpt lat="46.97357" lon="6.03241">
        <ele>746</ele>
        <time>2019-04-11T10:35:41Z</time>
      </trkpt>
      <trkpt lat="46.97361" lon="6.03238">
        <ele>749</ele>
        <time>2019-04-11T10:36:11Z</time>
      </trkpt>
      <trkpt lat="46.97368" lon="6.03245">
        <ele>755</ele>
        <time>2019-04-11T10:36:23Z</time>
      </trkpt>
      <trkpt lat="46.97374" lon="6.0325">
        <ele>755</ele>
        <time>2019-04-11T10:36:34Z</time>
      </trkpt>
      <trkpt lat="46.97378" lon="6.03252">
        <ele>755</ele>
        <time>2019-04-11T10:36:46Z</time>
      </trkpt>
      <trkpt lat="46.97383" lon="6.03261">
        <ele>762</ele>
        <time>2019-04-11T10:36:58Z</time>
      </trkpt>
      <trkpt lat="46.97387" lon="6.03264">
        <ele>761</ele>
        <time>2019-04-11T10:37:22Z</time>
      </trkpt>
      <trkpt lat="46.97392" lon="6.03268">
        <ele>761</ele>
        <time>2019-04-11T10:37:40Z</time>
      </trkpt>
      <trkpt lat="46.97399" lon="6.03276">
        <ele>765</ele>
        <time>2019-04-11T10:37:58Z</time>
      </trkpt>
      <trkpt lat="46.97408" lon="6.03279">
        <ele>760</ele>
        <time>2019-04-11T10:38:09Z</time>
      </trkpt>
      <trkpt lat="46.97413" lon="6.03284">
        <ele>768</ele>
        <time>2019-04-11T10:38:29Z</time>
      </trkpt>
      <trkpt lat="46.97425" lon="6.03294">
        <ele>767</ele>
        <time>2019-04-11T10:38:53Z</time>
      </trkpt>
      <trkpt lat="46.97432" lon="6.03297">
        <ele>768</ele>
        <time>2019-04-11T10:39:59Z</time>
      </trkpt>
      <trkpt lat="46.97437" lon="6.03297">
        <ele>770</ele>
        <time>2019-04-11T10:40:05Z</time>
      </trkpt>
      <trkpt lat="46.97443" lon="6.03298">
        <ele>770</ele>
        <time>2019-04-11T10:40:13Z</time>
      </trkpt>
      <trkpt lat="46.97452" lon="6.03299">
        <ele>768</ele>
        <time>2019-04-11T10:40:25Z</time>
      </trkpt>
      <trkpt lat="46.9746" lon="6.03297">
        <ele>770</ele>
        <time>2019-04-11T10:40:37Z</time>
      </trkpt>
      <trkpt lat="46.97464" lon="6.03298">
        <ele>770</ele>
        <time>2019-04-11T10:40:43Z</time>
      </trkpt>
      <trkpt lat="46.97471" lon="6.03297">
        <ele>772</ele>
        <time>2019-04-11T10:40:55Z</time>
      </trkpt>
      <trkpt lat="46.97485" lon="6.033">
        <ele>774</ele>
        <time>2019-04-11T10:41:19Z</time>
      </trkpt>
      <trkpt lat="46.97492" lon="6.03296">
        <ele>777</ele>
        <time>2019-04-11T10:41:31Z</time>
      </trkpt>
      <trkpt lat="46.97499" lon="6.03293">
        <ele>780</ele>
        <time>2019-04-11T10:41:44Z</time>
      </trkpt>
      <trkpt lat="46.97512" lon="6.03295">
        <ele>784</ele>
        <time>2019-04-11T10:42:08Z</time>
      </trkpt>
      <trkpt lat="46.9752" lon="6.0329">
        <ele>786</ele>
        <time>2019-04-11T10:42:20Z</time>
      </trkpt>
      <trkpt lat="46.97528" lon="6.03285">
        <ele>786</ele>
        <time>2019-04-11T10:42:32Z</time>
      </trkpt>
      <trkpt lat="46.97532" lon="6.03282">
        <ele>783</ele>
        <time>2019-04-11T10:42:38Z</time>
      </trkpt>
      <trkpt lat="46.97539" lon="6.03284">
        <ele>784</ele>
        <time>2019-04-11T10:42:50Z</time>
      </trkpt>
      <trkpt lat="46.97548" lon="6.03283">
        <ele>782</ele>
        <time>2019-04-11T10:43:02Z</time>
      </trkpt>
      <trkpt lat="46.97562" lon="6.0328">
        <ele>783</ele>
        <time>2019-04-11T10:43:24Z</time>
      </trkpt>
      <trkpt lat="46.97564" lon="6.03288">
        <ele>784</ele>
        <time>2019-04-11T10:44:34Z</time>
      </trkpt>
      <trkpt lat="46.97569" lon="6.03272">
        <ele>787</ele>
        <time>2019-04-11T10:44:59Z</time>
      </trkpt>
      <trkpt lat="46.97569" lon="6.03282">
        <ele>782</ele>
        <time>2019-04-11T10:45:12Z</time>
      </trkpt>
      <trkpt lat="46.97574" lon="6.0329">
        <ele>783</ele>
        <time>2019-04-11T10:45:22Z</time>
      </trkpt>
      <trkpt lat="46.9758" lon="6.03276">
        <ele>783</ele>
        <time>2019-04-11T10:45:43Z</time>
      </trkpt>
      <trkpt lat="46.97583" lon="6.03258">
        <ele>781</ele>
        <time>2019-04-11T10:45:58Z</time>
      </trkpt>
      <trkpt lat="46.97588" lon="6.03233">
        <ele>781</ele>
        <time>2019-04-11T10:46:19Z</time>
      </trkpt>
      <trkpt lat="46.97589" lon="6.03216">
        <ele>781</ele>
        <time>2019-04-11T10:46:35Z</time>
      </trkpt>
      <trkpt lat="46.97588" lon="6.03204">
        <ele>779</ele>
        <time>2019-04-11T10:46:47Z</time>
      </trkpt>
      <trkpt lat="46.97591" lon="6.03181">
        <ele>777</ele>
        <time>2019-04-11T10:47:11Z</time>
      </trkpt>
      <trkpt lat="46.97592" lon="6.03175">
        <ele>777</ele>
        <time>2019-04-11T10:47:16Z</time>
      </trkpt>
      <trkpt lat="46.97594" lon="6.03165">
        <ele>776</ele>
        <time>2019-04-11T10:47:24Z</time>
      </trkpt>
      <trkpt lat="46.97598" lon="6.03156">
        <ele>774</ele>
        <time>2019-04-11T10:47:36Z</time>
      </trkpt>
      <trkpt lat="46.97598" lon="6.03139">
        <ele>771</ele>
        <time>2019-04-11T10:48:59Z</time>
      </trkpt>
      <trkpt lat="46.97601" lon="6.03125">
        <ele>769</ele>
        <time>2019-04-11T10:49:13Z</time>
      </trkpt>
      <trkpt lat="46.97611" lon="6.03113">
        <ele>765</ele>
        <time>2019-04-11T10:49:31Z</time>
      </trkpt>
      <trkpt lat="46.97619" lon="6.03107">
        <ele>765</ele>
        <time>2019-04-11T10:49:49Z</time>
      </trkpt>
      <trkpt lat="46.9764" lon="6.03109">
        <ele>761</ele>
        <time>2019-04-11T10:50:19Z</time>
      </trkpt>
      <trkpt lat="46.97648" lon="6.03112">
        <ele>761</ele>
        <time>2019-04-11T10:50:31Z</time>
      </trkpt>
      <trkpt lat="46.97656" lon="6.03106">
        <ele>756</ele>
        <time>2019-04-11T10:50:41Z</time>
      </trkpt>
      <trkpt lat="46.97662" lon="6.03094">
        <ele>757</ele>
        <time>2019-04-11T10:50:50Z</time>
      </trkpt>
      <trkpt lat="46.9767" lon="6.03085">
        <ele>754</ele>
        <time>2019-04-11T10:50:59Z</time>
      </trkpt>
      <trkpt lat="46.97677" lon="6.03078">
        <ele>755</ele>
        <time>2019-04-11T10:51:10Z</time>
      </trkpt>
      <trkpt lat="46.97688" lon="6.03064">
        <ele>752</ele>
        <time>2019-04-11T10:51:25Z</time>
      </trkpt>
      <trkpt lat="46.97692" lon="6.03058">
        <ele>752</ele>
        <time>2019-04-11T10:51:29Z</time>
      </trkpt>
      <trkpt lat="46.97695" lon="6.03054">
        <ele>752</ele>
        <time>2019-04-11T10:51:33Z</time>
      </trkpt>
      <trkpt lat="46.97699" lon="6.0305">
        <ele>751</ele>
        <time>2019-04-11T10:51:37Z</time>
      </trkpt>
      <trkpt lat="46.97703" lon="6.03044">
        <ele>751</ele>
        <time>2019-04-11T10:51:41Z</time>
      </trkpt>
      <trkpt lat="46.97706" lon="6.0304">
        <ele>750</ele>
        <time>2019-04-11T10:51:46Z</time>
      </trkpt>
      <trkpt lat="46.97713" lon="6.03033">
        <ele>751</ele>
        <time>2019-04-11T10:52:05Z</time>
      </trkpt>
      <trkpt lat="46.97717" lon="6.03029">
        <ele>750</ele>
        <time>2019-04-11T10:52:10Z</time>
      </trkpt>
      <trkpt lat="46.97722" lon="6.03027">
        <ele>751</ele>
        <time>2019-04-11T10:52:15Z</time>
      </trkpt>
      <trkpt lat="46.97727" lon="6.03025">
        <ele>751</ele>
        <time>2019-04-11T10:52:20Z</time>
      </trkpt>
      <trkpt lat="46.97733" lon="6.03026">
        <ele>749</ele>
        <time>2019-04-11T10:52:27Z</time>
      </trkpt>
      <trkpt lat="46.97744" lon="6.03027">
        <ele>750</ele>
        <time>2019-04-11T10:52:35Z</time>
      </trkpt>
      <trkpt lat="46.97749" lon="6.03028">
        <ele>750</ele>
        <time>2019-04-11T10:52:40Z</time>
      </trkpt>
      <trkpt lat="46.97754" lon="6.03029">
        <ele>750</ele>
        <time>2019-04-11T10:52:44Z</time>
      </trkpt>
      <trkpt lat="46.97759" lon="6.03029">
        <ele>749</ele>
        <time>2019-04-11T10:52:48Z</time>
      </trkpt>
      <trkpt lat="46.97774" lon="6.03032">
        <ele>749</ele>
        <time>2019-04-11T10:53:00Z</time>
      </trkpt>
      <trkpt lat="46.97779" lon="6.03032">
        <ele>748</ele>
        <time>2019-04-11T10:53:05Z</time>
      </trkpt>
      <trkpt lat="46.97788" lon="6.0303">
        <ele>749</ele>
        <time>2019-04-11T10:53:13Z</time>
      </trkpt>
      <trkpt lat="46.97793" lon="6.0303">
        <ele>749</ele>
        <time>2019-04-11T10:53:18Z</time>
      </trkpt>
      <trkpt lat="46.978" lon="6.03026">
        <ele>749</ele>
        <time>2019-04-11T10:53:25Z</time>
      </trkpt>
      <trkpt lat="46.97814" lon="6.03019">
        <ele>750</ele>
        <time>2019-04-11T10:53:39Z</time>
      </trkpt>
      <trkpt lat="46.97818" lon="6.03015">
        <ele>750</ele>
        <time>2019-04-11T10:53:44Z</time>
      </trkpt>
      <trkpt lat="46.97822" lon="6.03011">
        <ele>752</ele>
        <time>2019-04-11T10:53:48Z</time>
      </trkpt>
      <trkpt lat="46.9784" lon="6.0298">
        <ele>754</ele>
        <time>2019-04-11T10:54:15Z</time>
      </trkpt>
      <trkpt lat="46.97844" lon="6.02979">
        <ele>754</ele>
        <time>2019-04-11T10:54:23Z</time>
      </trkpt>
      <trkpt lat="46.97849" lon="6.02981">
        <ele>754</ele>
        <time>2019-04-11T10:54:29Z</time>
      </trkpt>
      <trkpt lat="46.97854" lon="6.02982">
        <ele>754</ele>
        <time>2019-04-11T10:54:34Z</time>
      </trkpt>
      <trkpt lat="46.97859" lon="6.02986">
        <ele>755</ele>
        <time>2019-04-11T10:54:42Z</time>
      </trkpt>
      <trkpt lat="46.97864" lon="6.02984">
        <ele>757</ele>
        <time>2019-04-11T10:54:54Z</time>
      </trkpt>
      <trkpt lat="46.97864" lon="6.02974">
        <ele>757</ele>
        <time>2019-04-11T10:55:07Z</time>
      </trkpt>
      <trkpt lat="46.97867" lon="6.02969">
        <ele>758</ele>
        <time>2019-04-11T10:55:37Z</time>
      </trkpt>
      <trkpt lat="46.9787" lon="6.02964">
        <ele>759</ele>
        <time>2019-04-11T10:55:48Z</time>
      </trkpt>
      <trkpt lat="46.97876" lon="6.0296">
        <ele>757</ele>
        <time>2019-04-11T10:55:56Z</time>
      </trkpt>
      <trkpt lat="46.97878" lon="6.02954">
        <ele>759</ele>
        <time>2019-04-11T10:56:02Z</time>
      </trkpt>
      <trkpt lat="46.9788" lon="6.02947">
        <ele>758</ele>
        <time>2019-04-11T10:56:07Z</time>
      </trkpt>
      <trkpt lat="46.97884" lon="6.02942">
        <ele>759</ele>
        <time>2019-04-11T10:56:12Z</time>
      </trkpt>
      <trkpt lat="46.97889" lon="6.02939">
        <ele>759</ele>
        <time>2019-04-11T10:56:17Z</time>
      </trkpt>
      <trkpt lat="46.97899" lon="6.02945">
        <ele>764</ele>
        <time>2019-04-11T10:56:29Z</time>
      </trkpt>
      <trkpt lat="46.97904" lon="6.02942">
        <ele>764</ele>
        <time>2019-04-11T10:56:33Z</time>
      </trkpt>
      <trkpt lat="46.97909" lon="6.02948">
        <ele>764</ele>
        <time>2019-04-11T10:56:42Z</time>
      </trkpt>
      <trkpt lat="46.9791" lon="6.02956">
        <ele>764</ele>
        <time>2019-04-11T10:56:47Z</time>
      </trkpt>
      <trkpt lat="46.97915" lon="6.02997">
        <ele>772</ele>
        <time>2019-04-11T10:57:22Z</time>
      </trkpt>
      <trkpt lat="46.97918" lon="6.03008">
        <ele>773</ele>
        <time>2019-04-11T10:57:34Z</time>
      </trkpt>
      <trkpt lat="46.97927" lon="6.03027">
        <ele>777</ele>
        <time>2019-04-11T10:57:59Z</time>
      </trkpt>
      <trkpt lat="46.97931" lon="6.03038">
        <ele>777</ele>
        <time>2019-04-11T10:58:08Z</time>
      </trkpt>
      <trkpt lat="46.97931" lon="6.03045">
        <ele>780</ele>
        <time>2019-04-11T10:58:12Z</time>
      </trkpt>
      <trkpt lat="46.97936" lon="6.03055">
        <ele>781</ele>
        <time>2019-04-11T10:58:24Z</time>
      </trkpt>
      <trkpt lat="46.97941" lon="6.03055">
        <ele>781</ele>
        <time>2019-04-11T10:58:30Z</time>
      </trkpt>
      <trkpt lat="46.97953" lon="6.03064">
        <ele>780</ele>
        <time>2019-04-11T10:58:48Z</time>
      </trkpt>
      <trkpt lat="46.97957" lon="6.03067">
        <ele>780</ele>
        <time>2019-04-11T10:58:54Z</time>
      </trkpt>
      <trkpt lat="46.97961" lon="6.0307">
        <ele>781</ele>
        <time>2019-04-11T10:59:00Z</time>
      </trkpt>
      <trkpt lat="46.97964" lon="6.0308">
        <ele>784</ele>
        <time>2019-04-11T10:59:08Z</time>
      </trkpt>
      <trkpt lat="46.97968" lon="6.03086">
        <ele>785</ele>
        <time>2019-04-11T10:59:16Z</time>
      </trkpt>
      <trkpt lat="46.97974" lon="6.03095">
        <ele>786</ele>
        <time>2019-04-11T10:59:28Z</time>
      </trkpt>
      <trkpt lat="46.97979" lon="6.03099">
        <ele>785</ele>
        <time>2019-04-11T10:59:33Z</time>
      </trkpt>
      <trkpt lat="46.97987" lon="6.03101">
        <ele>787</ele>
        <time>2019-04-11T10:59:44Z</time>
      </trkpt>
      <trkpt lat="46.97993" lon="6.03103">
        <ele>789</ele>
        <time>2019-04-11T10:59:53Z</time>
      </trkpt>
      <trkpt lat="46.97996" lon="6.0311">
        <ele>791</ele>
        <time>2019-04-11T10:59:58Z</time>
      </trkpt>
      <trkpt lat="46.97998" lon="6.03117">
        <ele>792</ele>
        <time>2019-04-11T11:00:03Z</time>
      </trkpt>
      <trkpt lat="46.98006" lon="6.03121">
        <ele>792</ele>
        <time>2019-04-11T11:00:13Z</time>
      </trkpt>
      <trkpt lat="46.98011" lon="6.0312">
        <ele>791</ele>
        <time>2019-04-11T11:00:19Z</time>
      </trkpt>
      <trkpt lat="46.98015" lon="6.03122">
        <ele>793</ele>
        <time>2019-04-11T11:00:25Z</time>
      </trkpt>
      <trkpt lat="46.9802" lon="6.03123">
        <ele>791</ele>
        <time>2019-04-11T11:00:31Z</time>
      </trkpt>
      <trkpt lat="46.98025" lon="6.03122">
        <ele>791</ele>
        <time>2019-04-11T11:00:35Z</time>
      </trkpt>
      <trkpt lat="46.98029" lon="6.03126">
        <ele>793</ele>
        <time>2019-04-11T11:00:40Z</time>
      </trkpt>
      <trkpt lat="46.98035" lon="6.03127">
        <ele>794</ele>
        <time>2019-04-11T11:00:47Z</time>
      </trkpt>
      <trkpt lat="46.98043" lon="6.03128">
        <ele>794</ele>
        <time>2019-04-11T11:00:57Z</time>
      </trkpt>
      <trkpt lat="46.98046" lon="6.03132">
        <ele>796</ele>
        <time>2019-04-11T11:01:03Z</time>
      </trkpt>
      <trkpt lat="46.98052" lon="6.03134">
        <ele>798</ele>
        <time>2019-04-11T11:01:12Z</time>
      </trkpt>
      <trkpt lat="46.98055" lon="6.03126">
        <ele>800</ele>
        <time>2019-04-11T11:01:35Z</time>
      </trkpt>
      <trkpt lat="46.98051" lon="6.0312">
        <ele>801</ele>
        <time>2019-04-11T11:01:41Z</time>
      </trkpt>
      <trkpt lat="46.98047" lon="6.03116">
        <ele>801</ele>
        <time>2019-04-11T11:01:47Z</time>
      </trkpt>
      <trkpt lat="46.98043" lon="6.0311">
        <ele>805</ele>
        <time>2019-04-11T11:01:55Z</time>
      </trkpt>
      <trkpt lat="46.98044" lon="6.03103">
        <ele>808</ele>
        <time>2019-04-11T11:02:01Z</time>
      </trkpt>
      <trkpt lat="46.9805" lon="6.03097">
        <ele>805</ele>
        <time>2019-04-11T11:02:14Z</time>
      </trkpt>
      <trkpt lat="46.98054" lon="6.031">
        <ele>806</ele>
        <time>2019-04-11T11:02:18Z</time>
      </trkpt>
      <trkpt lat="46.98059" lon="6.03103">
        <ele>805</ele>
        <time>2019-04-11T11:02:23Z</time>
      </trkpt>
      <trkpt lat="46.98063" lon="6.03104">
        <ele>805</ele>
        <time>2019-04-11T11:02:33Z</time>
      </trkpt>
      <trkpt lat="46.98066" lon="6.03096">
        <ele>806</ele>
        <time>2019-04-11T11:02:57Z</time>
      </trkpt>
      <trkpt lat="46.98067" lon="6.03089">
        <ele>806</ele>
        <time>2019-04-11T11:03:03Z</time>
      </trkpt>
      <trkpt lat="46.98072" lon="6.03076">
        <ele>809</ele>
        <time>2019-04-11T11:03:13Z</time>
      </trkpt>
      <trkpt lat="46.98072" lon="6.03054">
        <ele>810</ele>
        <time>2019-04-11T11:03:33Z</time>
      </trkpt>
      <trkpt lat="46.98069" lon="6.03047">
        <ele>807</ele>
        <time>2019-04-11T11:03:39Z</time>
      </trkpt>
      <trkpt lat="46.98069" lon="6.03041">
        <ele>806</ele>
        <time>2019-04-11T11:03:44Z</time>
      </trkpt>
      <trkpt lat="46.98072" lon="6.03018">
        <ele>812</ele>
        <time>2019-04-11T11:04:02Z</time>
      </trkpt>
      <trkpt lat="46.98071" lon="6.03009">
        <ele>813</ele>
        <time>2019-04-11T11:04:10Z</time>
      </trkpt>
      <trkpt lat="46.98066" lon="6.03008">
        <ele>816</ele>
        <time>2019-04-11T11:04:22Z</time>
      </trkpt>
      <trkpt lat="46.98066" lon="6.03016">
        <ele>814</ele>
        <time>2019-04-11T11:04:34Z</time>
      </trkpt>
      <trkpt lat="46.98064" lon="6.03023">
        <ele>815</ele>
        <time>2019-04-11T11:04:40Z</time>
      </trkpt>
      <trkpt lat="46.98062" lon="6.0303">
        <ele>816</ele>
        <time>2019-04-11T11:04:46Z</time>
      </trkpt>
      <trkpt lat="46.98058" lon="6.03035">
        <ele>817</ele>
        <time>2019-04-11T11:04:52Z</time>
      </trkpt>
      <trkpt lat="46.98052" lon="6.0304">
        <ele>816</ele>
        <time>2019-04-11T11:04:59Z</time>
      </trkpt>
      <trkpt lat="46.98048" lon="6.03043">
        <ele>819</ele>
        <time>2019-04-11T11:05:04Z</time>
      </trkpt>
      <trkpt lat="46.98039" lon="6.03037">
        <ele>824</ele>
        <time>2019-04-11T11:05:14Z</time>
      </trkpt>
      <trkpt lat="46.98035" lon="6.0303">
        <ele>823</ele>
        <time>2019-04-11T11:05:21Z</time>
      </trkpt>
      <trkpt lat="46.98034" lon="6.03022">
        <ele>821</ele>
        <time>2019-04-11T11:05:29Z</time>
      </trkpt>
      <trkpt lat="46.98036" lon="6.02998">
        <ele>826</ele>
        <time>2019-04-11T11:05:52Z</time>
      </trkpt>
      <trkpt lat="46.98031" lon="6.02994">
        <ele>826</ele>
        <time>2019-04-11T11:06:22Z</time>
      </trkpt>
      <trkpt lat="46.98026" lon="6.02993">
        <ele>828</ele>
        <time>2019-04-11T11:06:58Z</time>
      </trkpt>
      <trkpt lat="46.98017" lon="6.02982">
        <ele>830</ele>
        <time>2019-04-11T11:07:11Z</time>
      </trkpt>
      <trkpt lat="46.98012" lon="6.02982">
        <ele>828</ele>
        <time>2019-04-11T11:07:29Z</time>
      </trkpt>
      <trkpt lat="46.98016" lon="6.02974">
        <ele>829</ele>
        <time>2019-04-11T11:08:03Z</time>
      </trkpt>
      <trkpt lat="46.98013" lon="6.02967">
        <ele>828</ele>
        <time>2019-04-11T11:08:11Z</time>
      </trkpt>
      <trkpt lat="46.98008" lon="6.02964">
        <ele>830</ele>
        <time>2019-04-11T11:08:17Z</time>
      </trkpt>
      <trkpt lat="46.98005" lon="6.02959">
        <ele>830</ele>
        <time>2019-04-11T11:08:23Z</time>
      </trkpt>
      <trkpt lat="46.98003" lon="6.02952">
        <ele>831</ele>
        <time>2019-04-11T11:08:29Z</time>
      </trkpt>
      <trkpt lat="46.97997" lon="6.02949">
        <ele>830</ele>
        <time>2019-04-11T11:08:53Z</time>
      </trkpt>
      <trkpt lat="46.9799" lon="6.02944">
        <ele>831</ele>
        <time>2019-04-11T11:09:05Z</time>
      </trkpt>
      <trkpt lat="46.9799" lon="6.02944">
        <ele>827</ele>
        <time>2019-04-11T11:10:53Z</time>
      </trkpt>
      <trkpt lat="46.97993" lon="6.02951">
        <ele>828</ele>
        <time>2019-04-11T11:11:06Z</time>
      </trkpt>
      <trkpt lat="46.97994" lon="6.02958">
        <ele>827</ele>
        <time>2019-04-11T11:11:36Z</time>
      </trkpt>
      <trkpt lat="46.98018" lon="6.02958">
        <ele>830</ele>
        <time>2019-04-11T11:55:07Z</time>
      </trkpt>
      <trkpt lat="46.98022" lon="6.02975">
        <ele>828</ele>
        <time>2019-04-11T11:56:19Z</time>
      </trkpt>
      <trkpt lat="46.98024" lon="6.02982">
        <ele>827</ele>
        <time>2019-04-11T11:56:27Z</time>
      </trkpt>
      <trkpt lat="46.9802" lon="6.02987">
        <ele>828</ele>
        <time>2019-04-11T11:56:45Z</time>
      </trkpt>
      <trkpt lat="46.98026" lon="6.02992">
        <ele>828</ele>
        <time>2019-04-11T11:57:03Z</time>
      </trkpt>
      <trkpt lat="46.98034" lon="6.02999">
        <ele>832</ele>
        <time>2019-04-11T11:58:16Z</time>
      </trkpt>
      <trkpt lat="46.98043" lon="6.03011">
        <ele>826</ele>
        <time>2019-04-11T11:58:56Z</time>
      </trkpt>
      <trkpt lat="46.98035" lon="6.03028">
        <ele>822</ele>
        <time>2019-04-11T11:59:12Z</time>
      </trkpt>
      <trkpt lat="46.98044" lon="6.03042">
        <ele>821</ele>
        <time>2019-04-11T11:59:28Z</time>
      </trkpt>
      <trkpt lat="46.98053" lon="6.03043">
        <ele>820</ele>
        <time>2019-04-11T11:59:37Z</time>
      </trkpt>
      <trkpt lat="46.98057" lon="6.03042">
        <ele>820</ele>
        <time>2019-04-11T11:59:51Z</time>
      </trkpt>
      <trkpt lat="46.9806" lon="6.03036">
        <ele>820</ele>
        <time>2019-04-11T12:00:21Z</time>
      </trkpt>
      <trkpt lat="46.98063" lon="6.03028">
        <ele>821</ele>
        <time>2019-04-11T12:00:33Z</time>
      </trkpt>
      <trkpt lat="46.98066" lon="6.0302">
        <ele>819</ele>
        <time>2019-04-11T12:00:38Z</time>
      </trkpt>
      <trkpt lat="46.98068" lon="6.0301">
        <ele>819</ele>
        <time>2019-04-11T12:00:47Z</time>
      </trkpt>
      <trkpt lat="46.98076" lon="6.03014">
        <ele>818</ele>
        <time>2019-04-11T12:00:58Z</time>
      </trkpt>
      <trkpt lat="46.9808" lon="6.03025">
        <ele>817</ele>
        <time>2019-04-11T12:01:06Z</time>
      </trkpt>
      <trkpt lat="46.98078" lon="6.03034">
        <ele>816</ele>
        <time>2019-04-11T12:01:14Z</time>
      </trkpt>
      <trkpt lat="46.98075" lon="6.03039">
        <ele>815</ele>
        <time>2019-04-11T12:01:19Z</time>
      </trkpt>
      <trkpt lat="46.98075" lon="6.03049">
        <ele>814</ele>
        <time>2019-04-11T12:01:27Z</time>
      </trkpt>
      <trkpt lat="46.98074" lon="6.03057">
        <ele>814</ele>
        <time>2019-04-11T12:01:32Z</time>
      </trkpt>
      <trkpt lat="46.98073" lon="6.03066">
        <ele>813</ele>
        <time>2019-04-11T12:01:40Z</time>
      </trkpt>
      <trkpt lat="46.98074" lon="6.03073">
        <ele>813</ele>
        <time>2019-04-11T12:01:45Z</time>
      </trkpt>
      <trkpt lat="46.98101" lon="6.03041">
        <ele>802</ele>
        <time>2019-04-11T12:03:38Z</time>
      </trkpt>
      <trkpt lat="46.98104" lon="6.03035">
        <ele>801</ele>
        <time>2019-04-11T12:03:43Z</time>
      </trkpt>
      <trkpt lat="46.98107" lon="6.03026">
        <ele>799</ele>
        <time>2019-04-11T12:03:52Z</time>
      </trkpt>
      <trkpt lat="46.98114" lon="6.03013">
        <ele>799</ele>
        <time>2019-04-11T12:04:03Z</time>
      </trkpt>
      <trkpt lat="46.98119" lon="6.03002">
        <ele>798</ele>
        <time>2019-04-11T12:04:11Z</time>
      </trkpt>
      <trkpt lat="46.98131" lon="6.02975">
        <ele>795</ele>
        <time>2019-04-11T12:04:35Z</time>
      </trkpt>
      <trkpt lat="46.9815" lon="6.02946">
        <ele>793</ele>
        <time>2019-04-11T12:05:05Z</time>
      </trkpt>
      <trkpt lat="46.98158" lon="6.02926">
        <ele>788</ele>
        <time>2019-04-11T12:05:26Z</time>
      </trkpt>
      <trkpt lat="46.98162" lon="6.02913">
        <ele>787</ele>
        <time>2019-04-11T12:05:35Z</time>
      </trkpt>
      <trkpt lat="46.9817" lon="6.02905">
        <ele>785</ele>
        <time>2019-04-11T12:05:47Z</time>
      </trkpt>
      <trkpt lat="46.9819" lon="6.02876">
        <ele>776</ele>
        <time>2019-04-11T12:06:21Z</time>
      </trkpt>
      <trkpt lat="46.98198" lon="6.02869">
        <ele>774</ele>
        <time>2019-04-11T12:06:29Z</time>
      </trkpt>
      <trkpt lat="46.98214" lon="6.02819">
        <ele>758</ele>
        <time>2019-04-11T12:07:45Z</time>
      </trkpt>
      <trkpt lat="46.9822" lon="6.02805">
        <ele>757</ele>
        <time>2019-04-11T12:07:58Z</time>
      </trkpt>
      <trkpt lat="46.98224" lon="6.02793">
        <ele>754</ele>
        <time>2019-04-11T12:08:09Z</time>
      </trkpt>
      <trkpt lat="46.98227" lon="6.02788">
        <ele>755</ele>
        <time>2019-04-11T12:08:14Z</time>
      </trkpt>
      <trkpt lat="46.98232" lon="6.02775">
        <ele>756</ele>
        <time>2019-04-11T12:08:23Z</time>
      </trkpt>
      <trkpt lat="46.98233" lon="6.02767">
        <ele>756</ele>
        <time>2019-04-11T12:08:28Z</time>
      </trkpt>
      <trkpt lat="46.98234" lon="6.0276">
        <ele>756</ele>
        <time>2019-04-11T12:08:32Z</time>
      </trkpt>
      <trkpt lat="46.98235" lon="6.02753">
        <ele>757</ele>
        <time>2019-04-11T12:08:37Z</time>
      </trkpt>
      <trkpt lat="46.98235" lon="6.02744">
        <ele>757</ele>
        <time>2019-04-11T12:08:44Z</time>
      </trkpt>
      <trkpt lat="46.98234" lon="6.02738">
        <ele>756</ele>
        <time>2019-04-11T12:08:49Z</time>
      </trkpt>
      <trkpt lat="46.98231" lon="6.02723">
        <ele>756</ele>
        <time>2019-04-11T12:08:58Z</time>
      </trkpt>
      <trkpt lat="46.98229" lon="6.02715">
        <ele>754</ele>
        <time>2019-04-11T12:09:03Z</time>
      </trkpt>
      <trkpt lat="46.98228" lon="6.02709">
        <ele>754</ele>
        <time>2019-04-11T12:09:07Z</time>
      </trkpt>
      <trkpt lat="46.98226" lon="6.02702">
        <ele>753</ele>
        <time>2019-04-11T12:09:12Z</time>
      </trkpt>
      <trkpt lat="46.98222" lon="6.02689">
        <ele>753</ele>
        <time>2019-04-11T12:09:21Z</time>
      </trkpt>
      <trkpt lat="46.98219" lon="6.02683">
        <ele>752</ele>
        <time>2019-04-11T12:09:25Z</time>
      </trkpt>
      <trkpt lat="46.98217" lon="6.02677">
        <ele>752</ele>
        <time>2019-04-11T12:09:30Z</time>
      </trkpt>
      <trkpt lat="46.98214" lon="6.02661">
        <ele>750</ele>
        <time>2019-04-11T12:09:41Z</time>
      </trkpt>
      <trkpt lat="46.98213" lon="6.02647">
        <ele>750</ele>
        <time>2019-04-11T12:09:50Z</time>
      </trkpt>
      <trkpt lat="46.98206" lon="6.02592">
        <ele>744</ele>
        <time>2019-04-11T12:10:28Z</time>
      </trkpt>
      <trkpt lat="46.98203" lon="6.02579">
        <ele>742</ele>
        <time>2019-04-11T12:10:36Z</time>
      </trkpt>
      <trkpt lat="46.98204" lon="6.02565">
        <ele>742</ele>
        <time>2019-04-11T12:10:46Z</time>
      </trkpt>
      <trkpt lat="46.98198" lon="6.0251">
        <ele>739</ele>
        <time>2019-04-11T12:11:22Z</time>
      </trkpt>
      <trkpt lat="46.98194" lon="6.02498">
        <ele>739</ele>
        <time>2019-04-11T12:11:31Z</time>
      </trkpt>
      <trkpt lat="46.98187" lon="6.02456">
        <ele>730</ele>
        <time>2019-04-11T12:12:01Z</time>
      </trkpt>
      <trkpt lat="46.98188" lon="6.02441">
        <ele>730</ele>
        <time>2019-04-11T12:12:10Z</time>
      </trkpt>
      <trkpt lat="46.98185" lon="6.02427">
        <ele>731</ele>
        <time>2019-04-11T12:12:19Z</time>
      </trkpt>
      <trkpt lat="46.9818" lon="6.02415">
        <ele>729</ele>
        <time>2019-04-11T12:12:27Z</time>
      </trkpt>
      <trkpt lat="46.98175" lon="6.02407">
        <ele>719</ele>
        <time>2019-04-11T12:13:36Z</time>
      </trkpt>
      <trkpt lat="46.98167" lon="6.02407">
        <ele>718</ele>
        <time>2019-04-11T12:13:49Z</time>
      </trkpt>
      <trkpt lat="46.98163" lon="6.02404">
        <ele>719</ele>
        <time>2019-04-11T12:13:54Z</time>
      </trkpt>
      <trkpt lat="46.98158" lon="6.02405">
        <ele>717</ele>
        <time>2019-04-11T12:14:02Z</time>
      </trkpt>
      <trkpt lat="46.98154" lon="6.02399">
        <ele>714</ele>
        <time>2019-04-11T12:14:14Z</time>
      </trkpt>
      <trkpt lat="46.98151" lon="6.02386">
        <ele>713</ele>
        <time>2019-04-11T12:14:24Z</time>
      </trkpt>
      <trkpt lat="46.9815" lon="6.02378">
        <ele>712</ele>
        <time>2019-04-11T12:14:32Z</time>
      </trkpt>
      <trkpt lat="46.98147" lon="6.02372">
        <ele>712</ele>
        <time>2019-04-11T12:14:38Z</time>
      </trkpt>
      <trkpt lat="46.98143" lon="6.02365">
        <ele>711</ele>
        <time>2019-04-11T12:14:45Z</time>
      </trkpt>
      <trkpt lat="46.98142" lon="6.02355">
        <ele>709</ele>
        <time>2019-04-11T12:14:53Z</time>
      </trkpt>
      <trkpt lat="46.98139" lon="6.02349">
        <ele>707</ele>
        <time>2019-04-11T12:14:59Z</time>
      </trkpt>
      <trkpt lat="46.98129" lon="6.02305">
        <ele>700</ele>
        <time>2019-04-11T12:15:39Z</time>
      </trkpt>
      <trkpt lat="46.98123" lon="6.02289">
        <ele>696</ele>
        <time>2019-04-11T12:15:53Z</time>
      </trkpt>
      <trkpt lat="46.98123" lon="6.02281">
        <ele>694</ele>
        <time>2019-04-11T12:16:01Z</time>
      </trkpt>
      <trkpt lat="46.98118" lon="6.02273">
        <ele>693</ele>
        <time>2019-04-11T12:16:13Z</time>
      </trkpt>
      <trkpt lat="46.98116" lon="6.02266">
        <ele>692</ele>
        <time>2019-04-11T12:16:19Z</time>
      </trkpt>
      <trkpt lat="46.98114" lon="6.02254">
        <ele>692</ele>
        <time>2019-04-11T12:16:31Z</time>
      </trkpt>
      <trkpt lat="46.98112" lon="6.02242">
        <ele>692</ele>
        <time>2019-04-11T12:16:43Z</time>
      </trkpt>
      <trkpt lat="46.98108" lon="6.02237">
        <ele>691</ele>
        <time>2019-04-11T12:16:48Z</time>
      </trkpt>
      <trkpt lat="46.98102" lon="6.02215">
        <ele>687</ele>
        <time>2019-04-11T12:17:05Z</time>
      </trkpt>
      <trkpt lat="46.98098" lon="6.022">
        <ele>686</ele>
        <time>2019-04-11T12:17:24Z</time>
      </trkpt>
      <trkpt lat="46.98085" lon="6.0217">
        <ele>681</ele>
        <time>2019-04-11T12:17:57Z</time>
      </trkpt>
      <trkpt lat="46.98081" lon="6.02157">
        <ele>677</ele>
        <time>2019-04-11T12:18:23Z</time>
      </trkpt>
      <trkpt lat="46.98079" lon="6.02144">
        <ele>674</ele>
        <time>2019-04-11T12:18:41Z</time>
      </trkpt>
      <trkpt lat="46.98072" lon="6.02118">
        <ele>671</ele>
        <time>2019-04-11T12:19:05Z</time>
      </trkpt>
      <trkpt lat="46.98068" lon="6.02105">
        <ele>666</ele>
        <time>2019-04-11T12:19:23Z</time>
      </trkpt>
      <trkpt lat="46.98059" lon="6.02099">
        <ele>660</ele>
        <time>2019-04-11T12:19:41Z</time>
      </trkpt>
      <trkpt lat="46.98049" lon="6.02096">
        <ele>648</ele>
        <time>2019-04-11T12:20:35Z</time>
      </trkpt>
      <trkpt lat="46.98052" lon="6.02079">
        <ele>642</ele>
        <time>2019-04-11T12:20:53Z</time>
      </trkpt>
      <trkpt lat="46.9806" lon="6.02067">
        <ele>643</ele>
        <time>2019-04-11T12:21:15Z</time>
      </trkpt>
      <trkpt lat="46.98054" lon="6.02049">
        <ele>640</ele>
        <time>2019-04-11T12:21:31Z</time>
      </trkpt>
      <trkpt lat="46.98047" lon="6.0204">
        <ele>639</ele>
        <time>2019-04-11T12:21:41Z</time>
      </trkpt>
      <trkpt lat="46.98046" lon="6.02027">
        <ele>637</ele>
        <time>2019-04-11T12:22:05Z</time>
      </trkpt>
      <trkpt lat="46.98027" lon="6.01985">
        <ele>629</ele>
        <time>2019-04-11T12:23:01Z</time>
      </trkpt>
      <trkpt lat="46.98013" lon="6.0199">
        <ele>628</ele>
        <time>2019-04-11T12:23:14Z</time>
      </trkpt>
      <trkpt lat="46.98017" lon="6.01968">
        <ele>610</ele>
        <time>2019-04-11T12:25:19Z</time>
      </trkpt>
      <trkpt lat="46.98012" lon="6.01955">
        <ele>604</ele>
        <time>2019-04-11T12:25:36Z</time>
      </trkpt>
      <trkpt lat="46.98003" lon="6.01948">
        <ele>602</ele>
        <time>2019-04-11T12:25:45Z</time>
      </trkpt>
      <trkpt lat="46.97998" lon="6.01938">
        <ele>605</ele>
        <time>2019-04-11T12:26:05Z</time>
      </trkpt>
      <trkpt lat="46.97986" lon="6.01927">
        <ele>607</ele>
        <time>2019-04-11T12:26:25Z</time>
      </trkpt>
      <trkpt lat="46.97981" lon="6.01915">
        <ele>603</ele>
        <time>2019-04-11T12:26:49Z</time>
      </trkpt>
      <trkpt lat="46.97971" lon="6.0192">
        <ele>608</ele>
        <time>2019-04-11T12:27:21Z</time>
      </trkpt>
      <trkpt lat="46.97976" lon="6.01933">
        <ele>606</ele>
        <time>2019-04-11T12:27:27Z</time>
      </trkpt>
      <trkpt lat="46.97969" lon="6.01929">
        <ele>609</ele>
        <time>2019-04-11T12:30:33Z</time>
      </trkpt>
      <trkpt lat="46.97967" lon="6.01914">
        <ele>610</ele>
        <time>2019-04-11T12:31:10Z</time>
      </trkpt>
      <trkpt lat="46.97969" lon="6.0191">
        <ele>606</ele>
        <time>2019-04-11T12:32:42Z</time>
      </trkpt>
      <trkpt lat="46.97961" lon="6.01897">
        <ele>600</ele>
        <time>2019-04-11T12:33:06Z</time>
      </trkpt>
      <trkpt lat="46.97956" lon="6.01888">
        <ele>600</ele>
        <time>2019-04-11T12:33:24Z</time>
      </trkpt>
      <trkpt lat="46.97942" lon="6.01876">
        <ele>594</ele>
        <time>2019-04-11T12:33:52Z</time>
      </trkpt>
      <trkpt lat="46.9793" lon="6.01881">
        <ele>589</ele>
        <time>2019-04-11T12:34:10Z</time>
      </trkpt>
      <trkpt lat="46.97921" lon="6.01886">
        <ele>587</ele>
        <time>2019-04-11T12:34:24Z</time>
      </trkpt>
      <trkpt lat="46.9791" lon="6.01875">
        <ele>589</ele>
        <time>2019-04-11T12:34:44Z</time>
      </trkpt>
      <trkpt lat="46.97898" lon="6.01851">
        <ele>583</ele>
        <time>2019-04-11T12:35:16Z</time>
      </trkpt>
      <trkpt lat="46.97895" lon="6.01831">
        <ele>580</ele>
        <time>2019-04-11T12:35:30Z</time>
      </trkpt>
      <trkpt lat="46.97884" lon="6.01809">
        <ele>578</ele>
        <time>2019-04-11T12:35:42Z</time>
      </trkpt>
      <trkpt lat="46.97884" lon="6.01794">
        <ele>576</ele>
        <time>2019-04-11T12:35:52Z</time>
      </trkpt>
      <trkpt lat="46.97879" lon="6.01775">
        <ele>575</ele>
        <time>2019-04-11T12:36:05Z</time>
      </trkpt>
      <trkpt lat="46.97873" lon="6.01764">
        <ele>573</ele>
        <time>2019-04-11T12:36:16Z</time>
      </trkpt>
      <trkpt lat="46.97865" lon="6.01751">
        <ele>567</ele>
        <time>2019-04-11T12:37:19Z</time>
      </trkpt>
      <trkpt lat="46.97867" lon="6.01737">
        <ele>563</ele>
        <time>2019-04-11T12:37:28Z</time>
      </trkpt>
      <trkpt lat="46.97859" lon="6.01693">
        <ele>558</ele>
        <time>2019-04-11T12:38:03Z</time>
      </trkpt>
      <trkpt lat="46.97856" lon="6.01678">
        <ele>554</ele>
        <time>2019-04-11T12:38:13Z</time>
      </trkpt>
      <trkpt lat="46.97857" lon="6.01664">
        <ele>553</ele>
        <time>2019-04-11T12:38:19Z</time>
      </trkpt>
      <trkpt lat="46.97855" lon="6.0165">
        <ele>551</ele>
        <time>2019-04-11T12:38:28Z</time>
      </trkpt>
      <trkpt lat="46.9785" lon="6.01623">
        <ele>549</ele>
        <time>2019-04-11T12:38:48Z</time>
      </trkpt>
      <trkpt lat="46.97842" lon="6.01606">
        <ele>546</ele>
        <time>2019-04-11T12:39:01Z</time>
      </trkpt>
      <trkpt lat="46.97843" lon="6.01593">
        <ele>546</ele>
        <time>2019-04-11T12:39:11Z</time>
      </trkpt>
      <trkpt lat="46.97837" lon="6.01559">
        <ele>541</ele>
        <time>2019-04-11T12:39:38Z</time>
      </trkpt>
      <trkpt lat="46.9781" lon="6.01557">
        <ele>535</ele>
        <time>2019-04-11T12:40:06Z</time>
      </trkpt>
      <trkpt lat="46.97798" lon="6.01555">
        <ele>535</ele>
        <time>2019-04-11T12:40:13Z</time>
      </trkpt>
      <trkpt lat="46.97793" lon="6.01556">
        <ele>534</ele>
        <time>2019-04-11T12:40:17Z</time>
      </trkpt>
      <trkpt lat="46.97788" lon="6.01555">
        <ele>534</ele>
        <time>2019-04-11T12:40:21Z</time>
      </trkpt>
      <trkpt lat="46.97778" lon="6.01555">
        <ele>530</ele>
        <time>2019-04-11T12:40:40Z</time>
      </trkpt>
      <trkpt lat="46.97773" lon="6.01554">
        <ele>531</ele>
        <time>2019-04-11T12:40:44Z</time>
      </trkpt>
      <trkpt lat="46.97764" lon="6.01549">
        <ele>528</ele>
        <time>2019-04-11T12:40:54Z</time>
      </trkpt>
      <trkpt lat="46.9776" lon="6.01533">
        <ele>522</ele>
        <time>2019-04-11T12:41:09Z</time>
      </trkpt>
      <trkpt lat="46.97753" lon="6.0152">
        <ele>520</ele>
        <time>2019-04-11T12:41:21Z</time>
      </trkpt>
      <trkpt lat="46.97749" lon="6.01515">
        <ele>520</ele>
        <time>2019-04-11T12:41:26Z</time>
      </trkpt>
      <trkpt lat="46.97743" lon="6.01497">
        <ele>516</ele>
        <time>2019-04-11T12:41:40Z</time>
      </trkpt>
      <trkpt lat="46.97739" lon="6.01484">
        <ele>514</ele>
        <time>2019-04-11T12:41:48Z</time>
      </trkpt>
      <trkpt lat="46.97734" lon="6.01472">
        <ele>512</ele>
        <time>2019-04-11T12:41:57Z</time>
      </trkpt>
      <trkpt lat="46.97732" lon="6.01462">
        <ele>514</ele>
        <time>2019-04-11T12:42:07Z</time>
      </trkpt>
      <trkpt lat="46.97727" lon="6.0145">
        <ele>512</ele>
        <time>2019-04-11T12:42:16Z</time>
      </trkpt>
      <trkpt lat="46.97725" lon="6.01444">
        <ele>513</ele>
        <time>2019-04-11T12:42:20Z</time>
      </trkpt>
      <trkpt lat="46.97719" lon="6.0143">
        <ele>511</ele>
        <time>2019-04-11T12:42:31Z</time>
      </trkpt>
      <trkpt lat="46.97716" lon="6.01419">
        <ele>511</ele>
        <time>2019-04-11T12:42:41Z</time>
      </trkpt>
      <trkpt lat="46.97715" lon="6.0141">
        <ele>512</ele>
        <time>2019-04-11T12:42:48Z</time>
      </trkpt>
      <trkpt lat="46.97713" lon="6.01404">
        <ele>511</ele>
        <time>2019-04-11T12:42:52Z</time>
      </trkpt>
      <trkpt lat="46.97711" lon="6.01398">
        <ele>511</ele>
        <time>2019-04-11T12:42:56Z</time>
      </trkpt>
      <trkpt lat="46.9771" lon="6.01391">
        <ele>510</ele>
        <time>2019-04-11T12:43:00Z</time>
      </trkpt>
      <trkpt lat="46.97709" lon="6.01383">
        <ele>510</ele>
        <time>2019-04-11T12:43:05Z</time>
      </trkpt>
      <trkpt lat="46.97708" lon="6.01377">
        <ele>509</ele>
        <time>2019-04-11T12:43:09Z</time>
      </trkpt>
      <trkpt lat="46.97707" lon="6.01369">
        <ele>509</ele>
        <time>2019-04-11T12:43:14Z</time>
      </trkpt>
      <trkpt lat="46.97707" lon="6.01361">
        <ele>509</ele>
        <time>2019-04-11T12:43:19Z</time>
      </trkpt>
      <trkpt lat="46.97706" lon="6.0135">
        <ele>510</ele>
        <time>2019-04-11T12:43:27Z</time>
      </trkpt>
      <trkpt lat="46.97703" lon="6.01336">
        <ele>508</ele>
        <time>2019-04-11T12:43:36Z</time>
      </trkpt>
      <trkpt lat="46.977" lon="6.01322">
        <ele>505</ele>
        <time>2019-04-11T12:43:44Z</time>
      </trkpt>
      <trkpt lat="46.97693" lon="6.01302">
        <ele>500</ele>
        <time>2019-04-11T12:43:59Z</time>
      </trkpt>
      <trkpt lat="46.97692" lon="6.01295">
        <ele>498</ele>
        <time>2019-04-11T12:44:07Z</time>
      </trkpt>
      <trkpt lat="46.9769" lon="6.01286">
        <ele>498</ele>
        <time>2019-04-11T12:44:12Z</time>
      </trkpt>
      <trkpt lat="46.97689" lon="6.01279">
        <ele>498</ele>
        <time>2019-04-11T12:44:16Z</time>
      </trkpt>
      <trkpt lat="46.97688" lon="6.01263">
        <ele>496</ele>
        <time>2019-04-11T12:44:24Z</time>
      </trkpt>
      <trkpt lat="46.97688" lon="6.01256">
        <ele>496</ele>
        <time>2019-04-11T12:44:28Z</time>
      </trkpt>
      <trkpt lat="46.97684" lon="6.01245">
        <ele>495</ele>
        <time>2019-04-11T12:44:39Z</time>
      </trkpt>
      <trkpt lat="46.97682" lon="6.01228">
        <ele>496</ele>
        <time>2019-04-11T12:44:52Z</time>
      </trkpt>
      <trkpt lat="46.97679" lon="6.01215">
        <ele>495</ele>
        <time>2019-04-11T12:45:01Z</time>
      </trkpt>
      <trkpt lat="46.97674" lon="6.01201">
        <ele>495</ele>
        <time>2019-04-11T12:45:11Z</time>
      </trkpt>
      <trkpt lat="46.9767" lon="6.01184">
        <ele>494</ele>
        <time>2019-04-11T12:45:24Z</time>
      </trkpt>
      <trkpt lat="46.97668" lon="6.01179">
        <ele>493</ele>
        <time>2019-04-11T12:45:28Z</time>
      </trkpt>
      <trkpt lat="46.97665" lon="6.01173">
        <ele>493</ele>
        <time>2019-04-11T12:45:32Z</time>
      </trkpt>
      <trkpt lat="46.97663" lon="6.01166">
        <ele>491</ele>
        <time>2019-04-11T12:45:37Z</time>
      </trkpt>
      <trkpt lat="46.97662" lon="6.01157">
        <ele>490</ele>
        <time>2019-04-11T12:45:44Z</time>
      </trkpt>
      <trkpt lat="46.97657" lon="6.01144">
        <ele>490</ele>
        <time>2019-04-11T12:45:53Z</time>
      </trkpt>
      <trkpt lat="46.97654" lon="6.01137">
        <ele>490</ele>
        <time>2019-04-11T12:45:58Z</time>
      </trkpt>
      <trkpt lat="46.97647" lon="6.01116">
        <ele>487</ele>
        <time>2019-04-11T12:46:12Z</time>
      </trkpt>
      <trkpt lat="46.97645" lon="6.01109">
        <ele>486</ele>
        <time>2019-04-11T12:46:17Z</time>
      </trkpt>
      <trkpt lat="46.97641" lon="6.01104">
        <ele>483</ele>
        <time>2019-04-11T12:46:32Z</time>
      </trkpt>
      <trkpt lat="46.97633" lon="6.01084">
        <ele>481</ele>
        <time>2019-04-11T12:46:45Z</time>
      </trkpt>
      <trkpt lat="46.97628" lon="6.01063">
        <ele>478</ele>
        <time>2019-04-11T12:46:57Z</time>
      </trkpt>
      <trkpt lat="46.97615" lon="6.01022">
        <ele>468</ele>
        <time>2019-04-11T12:47:27Z</time>
      </trkpt>
      <trkpt lat="46.97613" lon="6.01015">
        <ele>468</ele>
        <time>2019-04-11T12:47:32Z</time>
      </trkpt>
      <trkpt lat="46.9761" lon="6.01006">
        <ele>469</ele>
        <time>2019-04-11T12:47:40Z</time>
      </trkpt>
      <trkpt lat="46.97608" lon="6.00998">
        <ele>469</ele>
        <time>2019-04-11T12:47:45Z</time>
      </trkpt>
      <trkpt lat="46.97608" lon="6.00991">
        <ele>470</ele>
        <time>2019-04-11T12:47:50Z</time>
      </trkpt>
      <trkpt lat="46.97608" lon="6.00984">
        <ele>469</ele>
        <time>2019-04-11T12:47:54Z</time>
      </trkpt>
      <trkpt lat="46.976" lon="6.00958">
        <ele>465</ele>
        <time>2019-04-11T12:48:10Z</time>
      </trkpt>
      <trkpt lat="46.97598" lon="6.00948">
        <ele>466</ele>
        <time>2019-04-11T12:48:17Z</time>
      </trkpt>
      <trkpt lat="46.97597" lon="6.00941">
        <ele>465</ele>
        <time>2019-04-11T12:48:22Z</time>
      </trkpt>
      <trkpt lat="46.97596" lon="6.00933">
        <ele>465</ele>
        <time>2019-04-11T12:48:27Z</time>
      </trkpt>
      <trkpt lat="46.97593" lon="6.00908">
        <ele>460</ele>
        <time>2019-04-11T12:48:44Z</time>
      </trkpt>
      <trkpt lat="46.97589" lon="6.00894">
        <ele>459</ele>
        <time>2019-04-11T12:48:53Z</time>
      </trkpt>
      <trkpt lat="46.97582" lon="6.00884">
        <ele>457</ele>
        <time>2019-04-11T12:49:01Z</time>
      </trkpt>
      <trkpt lat="46.97578" lon="6.0088">
        <ele>457</ele>
        <time>2019-04-11T12:49:05Z</time>
      </trkpt>
      <trkpt lat="46.97574" lon="6.00875">
        <ele>457</ele>
        <time>2019-04-11T12:49:09Z</time>
      </trkpt>
      <trkpt lat="46.9757" lon="6.00871">
        <ele>457</ele>
        <time>2019-04-11T12:49:14Z</time>
      </trkpt>
      <trkpt lat="46.97567" lon="6.00866">
        <ele>456</ele>
        <time>2019-04-11T12:49:18Z</time>
      </trkpt>
      <trkpt lat="46.97564" lon="6.00859">
        <ele>455</ele>
        <time>2019-04-11T12:49:23Z</time>
      </trkpt>
      <trkpt lat="46.97562" lon="6.00853">
        <ele>455</ele>
        <time>2019-04-11T12:49:27Z</time>
      </trkpt>
      <trkpt lat="46.97561" lon="6.00846">
        <ele>455</ele>
        <time>2019-04-11T12:49:31Z</time>
      </trkpt>
      <trkpt lat="46.97561" lon="6.00839">
        <ele>455</ele>
        <time>2019-04-11T12:49:36Z</time>
      </trkpt>
      <trkpt lat="46.97561" lon="6.00831">
        <ele>454</ele>
        <time>2019-04-11T12:49:42Z</time>
      </trkpt>
      <trkpt lat="46.97563" lon="6.00824">
        <ele>454</ele>
        <time>2019-04-11T12:49:47Z</time>
      </trkpt>
      <trkpt lat="46.97565" lon="6.00818">
        <ele>455</ele>
        <time>2019-04-11T12:49:51Z</time>
      </trkpt>
      <trkpt lat="46.97567" lon="6.00811">
        <ele>454</ele>
        <time>2019-04-11T12:49:56Z</time>
      </trkpt>
      <trkpt lat="46.97569" lon="6.00805">
        <ele>453</ele>
        <time>2019-04-11T12:50:01Z</time>
      </trkpt>
      <trkpt lat="46.9757" lon="6.00795">
        <ele>452</ele>
        <time>2019-04-11T12:50:09Z</time>
      </trkpt>
      <trkpt lat="46.97571" lon="6.00788">
        <ele>452</ele>
        <time>2019-04-11T12:50:15Z</time>
      </trkpt>
      <trkpt lat="46.97574" lon="6.00781">
        <ele>452</ele>
        <time>2019-04-11T12:50:20Z</time>
      </trkpt>
      <trkpt lat="46.97577" lon="6.00773">
        <ele>452</ele>
        <time>2019-04-11T12:50:28Z</time>
      </trkpt>
      <trkpt lat="46.9758" lon="6.00767">
        <ele>452</ele>
        <time>2019-04-11T12:50:33Z</time>
      </trkpt>
      <trkpt lat="46.97581" lon="6.0076">
        <ele>450</ele>
        <time>2019-04-11T12:50:38Z</time>
      </trkpt>
      <trkpt lat="46.9758" lon="6.00735">
        <ele>446</ele>
        <time>2019-04-11T12:50:55Z</time>
      </trkpt>
      <trkpt lat="46.9758" lon="6.00727">
        <ele>447</ele>
        <time>2019-04-11T12:50:59Z</time>
      </trkpt>
      <trkpt lat="46.9758" lon="6.00719">
        <ele>446</ele>
        <time>2019-04-11T12:51:04Z</time>
      </trkpt>
      <trkpt lat="46.97581" lon="6.00712">
        <ele>446</ele>
        <time>2019-04-11T12:51:08Z</time>
      </trkpt>
      <trkpt lat="46.97581" lon="6.00705">
        <ele>445</ele>
        <time>2019-04-11T12:51:19Z</time>
      </trkpt>
      <trkpt lat="46.97578" lon="6.00698">
        <ele>443</ele>
        <time>2019-04-11T12:51:25Z</time>
      </trkpt>
      <trkpt lat="46.97577" lon="6.00688">
        <ele>442</ele>
        <time>2019-04-11T12:51:34Z</time>
      </trkpt>
      <trkpt lat="46.97579" lon="6.00673">
        <ele>442</ele>
        <time>2019-04-11T12:51:43Z</time>
      </trkpt>
      <trkpt lat="46.97582" lon="6.00656">
        <ele>438</ele>
        <time>2019-04-11T12:51:55Z</time>
      </trkpt>
      <trkpt lat="46.97582" lon="6.00649">
        <ele>437</ele>
        <time>2019-04-11T12:51:59Z</time>
      </trkpt>
      <trkpt lat="46.97582" lon="6.00601">
        <ele>428</ele>
        <time>2019-04-11T12:52:34Z</time>
      </trkpt>
      <trkpt lat="46.97582" lon="6.00573">
        <ele>424</ele>
        <time>2019-04-11T12:52:57Z</time>
      </trkpt>
      <trkpt lat="46.97581" lon="6.00566">
        <ele>423</ele>
        <time>2019-04-11T12:53:02Z</time>
      </trkpt>
      <trkpt lat="46.97581" lon="6.00558">
        <ele>423</ele>
        <time>2019-04-11T12:53:07Z</time>
      </trkpt>
      <trkpt lat="46.97582" lon="6.00551">
        <ele>422</ele>
        <time>2019-04-11T12:53:12Z</time>
      </trkpt>
      <trkpt lat="46.97579" lon="6.00499">
        <ele>416</ele>
        <time>2019-04-11T12:53:46Z</time>
      </trkpt>
      <trkpt lat="46.97579" lon="6.00492">
        <ele>415</ele>
        <time>2019-04-11T12:53:51Z</time>
      </trkpt>
      <trkpt lat="46.97578" lon="6.00464">
        <ele>411</ele>
        <time>2019-04-11T12:54:11Z</time>
      </trkpt>
      <trkpt lat="46.97579" lon="6.00457">
        <ele>410</ele>
        <time>2019-04-11T12:54:16Z</time>
      </trkpt>
      <trkpt lat="46.97582" lon="6.00451">
        <ele>409</ele>
        <time>2019-04-11T12:54:21Z</time>
      </trkpt>
      <trkpt lat="46.97594" lon="6.00439">
        <ele>406</ele>
        <time>2019-04-11T12:54:36Z</time>
      </trkpt>
      <trkpt lat="46.97598" lon="6.00434">
        <ele>406</ele>
        <time>2019-04-11T12:54:41Z</time>
      </trkpt>
      <trkpt lat="46.97616" lon="6.0041">
        <ele>403</ele>
        <time>2019-04-11T12:55:06Z</time>
      </trkpt>
      <trkpt lat="46.9762" lon="6.00406">
        <ele>403</ele>
        <time>2019-04-11T12:55:10Z</time>
      </trkpt>
      <trkpt lat="46.97622" lon="6.00399">
        <ele>402</ele>
        <time>2019-04-11T12:55:14Z</time>
      </trkpt>
      <trkpt lat="46.97624" lon="6.00392">
        <ele>402</ele>
        <time>2019-04-11T12:55:19Z</time>
      </trkpt>
      <trkpt lat="46.97628" lon="6.00385">
        <ele>402</ele>
        <time>2019-04-11T12:55:24Z</time>
      </trkpt>
      <trkpt lat="46.97632" lon="6.00372">
        <ele>402</ele>
        <time>2019-04-11T12:55:33Z</time>
      </trkpt>
      <trkpt lat="46.97636" lon="6.00359">
        <ele>401</ele>
        <time>2019-04-11T12:55:43Z</time>
      </trkpt>
      <trkpt lat="46.97648" lon="6.00325">
        <ele>395</ele>
        <time>2019-04-11T12:56:19Z</time>
      </trkpt>
      <trkpt lat="46.97652" lon="6.00313">
        <ele>391</ele>
        <time>2019-04-11T12:56:29Z</time>
      </trkpt>
      <trkpt lat="46.97658" lon="6.00296">
        <ele>386</ele>
        <time>2019-04-11T12:56:43Z</time>
      </trkpt>
      <trkpt lat="46.97674" lon="6.00286">
        <ele>385</ele>
        <time>2019-04-11T12:57:03Z</time>
      </trkpt>
      <trkpt lat="46.97683" lon="6.00284">
        <ele>385</ele>
        <time>2019-04-11T12:57:10Z</time>
      </trkpt>
      <trkpt lat="46.97692" lon="6.00279">
        <ele>384</ele>
        <time>2019-04-11T12:57:17Z</time>
      </trkpt>
      <trkpt lat="46.977" lon="6.00261">
        <ele>380</ele>
        <time>2019-04-11T12:57:30Z</time>
      </trkpt>
      <trkpt lat="46.97701" lon="6.00254">
        <ele>379</ele>
        <time>2019-04-11T12:57:35Z</time>
      </trkpt>
      <trkpt lat="46.97704" lon="6.00248">
        <ele>378</ele>
        <time>2019-04-11T12:57:39Z</time>
      </trkpt>
      <trkpt lat="46.97711" lon="6.00241">
        <ele>375</ele>
        <time>2019-04-11T12:57:48Z</time>
      </trkpt>
      <trkpt lat="46.97716" lon="6.00238">
        <ele>374</ele>
        <time>2019-04-11T12:57:52Z</time>
      </trkpt>
      <trkpt lat="46.97721" lon="6.00236">
        <ele>374</ele>
        <time>2019-04-11T12:57:56Z</time>
      </trkpt>
      <trkpt lat="46.97725" lon="6.00233">
        <ele>374</ele>
        <time>2019-04-11T12:58:01Z</time>
      </trkpt>
      <trkpt lat="46.97732" lon="6.00228">
        <ele>373</ele>
        <time>2019-04-11T12:58:09Z</time>
      </trkpt>
      <trkpt lat="46.97741" lon="6.00221">
        <ele>373</ele>
        <time>2019-04-11T12:58:19Z</time>
      </trkpt>
      <trkpt lat="46.97747" lon="6.00218">
        <ele>369</ele>
        <time>2019-04-11T12:58:57Z</time>
      </trkpt>
      <trkpt lat="46.97755" lon="6.00221">
        <ele>371</ele>
        <time>2019-04-11T12:59:08Z</time>
      </trkpt>
      <trkpt lat="46.9776" lon="6.00224">
        <ele>372</ele>
        <time>2019-04-11T12:59:13Z</time>
      </trkpt>
      <trkpt lat="46.97768" lon="6.00232">
        <ele>374</ele>
        <time>2019-04-11T12:59:21Z</time>
      </trkpt>
      <trkpt lat="46.97773" lon="6.00234">
        <ele>375</ele>
        <time>2019-04-11T12:59:26Z</time>
      </trkpt>
      <trkpt lat="46.97778" lon="6.00235">
        <ele>375</ele>
        <time>2019-04-11T12:59:34Z</time>
      </trkpt>
      <trkpt lat="46.97787" lon="6.00233">
        <ele>375</ele>
        <time>2019-04-11T12:59:45Z</time>
      </trkpt>
      <trkpt lat="46.97792" lon="6.00231">
        <ele>375</ele>
        <time>2019-04-11T12:59:50Z</time>
      </trkpt>
      <trkpt lat="46.978" lon="6.00232">
        <ele>374</ele>
        <time>2019-04-11T13:00:01Z</time>
      </trkpt>
      <trkpt lat="46.97804" lon="6.00235">
        <ele>375</ele>
        <time>2019-04-11T13:00:09Z</time>
      </trkpt>
      <trkpt lat="46.97808" lon="6.0024">
        <ele>375</ele>
        <time>2019-04-11T13:00:26Z</time>
      </trkpt>
      <trkpt lat="46.97806" lon="6.00251">
        <ele>373</ele>
        <time>2019-04-11T13:00:31Z</time>
      </trkpt>
      <trkpt lat="46.97808" lon="6.0026">
        <ele>375</ele>
        <time>2019-04-11T13:00:38Z</time>
      </trkpt>
      <trkpt lat="46.97819" lon="6.00278">
        <ele>377</ele>
        <time>2019-04-11T13:00:56Z</time>
      </trkpt>
      <trkpt lat="46.9783" lon="6.00284">
        <ele>378</ele>
        <time>2019-04-11T13:01:10Z</time>
      </trkpt>
      <trkpt lat="46.97848" lon="6.003">
        <ele>387</ele>
        <time>2019-04-11T13:01:46Z</time>
      </trkpt>
      <trkpt lat="46.97863" lon="6.00315">
        <ele>395</ele>
        <time>2019-04-11T13:02:34Z</time>
      </trkpt>
      <trkpt lat="46.97868" lon="6.00317">
        <ele>398</ele>
        <time>2019-04-11T13:02:46Z</time>
      </trkpt>
      <trkpt lat="46.97873" lon="6.00322">
        <ele>400</ele>
        <time>2019-04-11T13:02:58Z</time>
      </trkpt>
      <trkpt lat="46.97877" lon="6.00331">
        <ele>401</ele>
        <time>2019-04-11T13:03:10Z</time>
      </trkpt>
      <trkpt lat="46.97874" lon="6.00335">
        <ele>401</ele>
        <time>2019-04-11T13:03:15Z</time>
      </trkpt>
      <trkpt lat="46.97875" lon="6.00345">
        <ele>405</ele>
        <time>2019-04-11T13:03:22Z</time>
      </trkpt>
      <trkpt lat="46.97878" lon="6.00351">
        <ele>405</ele>
        <time>2019-04-11T13:03:26Z</time>
      </trkpt>
      <trkpt lat="46.97871" lon="6.0036">
        <ele>402</ele>
        <time>2019-04-11T13:04:10Z</time>
      </trkpt>
      <trkpt lat="46.97868" lon="6.00374">
        <ele>395</ele>
        <time>2019-04-11T13:04:46Z</time>
      </trkpt>
      <trkpt lat="46.9787" lon="6.00388">
        <ele>396</ele>
        <time>2019-04-11T13:05:10Z</time>
      </trkpt>
      <trkpt lat="46.97871" lon="6.0041">
        <ele>397</ele>
        <time>2019-04-11T13:05:38Z</time>
      </trkpt>
      <trkpt lat="46.97871" lon="6.00424">
        <ele>397</ele>
        <time>2019-04-11T13:05:53Z</time>
      </trkpt>
      <trkpt lat="46.97874" lon="6.00439">
        <ele>396</ele>
        <time>2019-04-11T13:06:11Z</time>
      </trkpt>
      <trkpt lat="46.97882" lon="6.00446">
        <ele>393</ele>
        <time>2019-04-11T13:06:21Z</time>
      </trkpt>
      <trkpt lat="46.97873" lon="6.0046">
        <ele>391</ele>
        <time>2019-04-11T13:07:01Z</time>
      </trkpt>
      <trkpt lat="46.97869" lon="6.00474">
        <ele>389</ele>
        <time>2019-04-11T13:07:15Z</time>
      </trkpt>
      <trkpt lat="46.97862" lon="6.00488">
        <ele>396</ele>
        <time>2019-04-11T13:08:25Z</time>
      </trkpt>
      <trkpt lat="46.97864" lon="6.00495">
        <ele>408</ele>
        <time>2019-04-11T13:09:02Z</time>
      </trkpt>
      <trkpt lat="46.97867" lon="6.00492">
        <ele>420</ele>
        <time>2019-04-11T13:10:47Z</time>
      </trkpt>
      <trkpt lat="46.97875" lon="6.00485">
        <ele>422</ele>
        <time>2019-04-11T13:11:08Z</time>
      </trkpt>
      <trkpt lat="46.97886" lon="6.00479">
        <ele>423</ele>
        <time>2019-04-11T13:11:34Z</time>
      </trkpt>
      <trkpt lat="46.97876" lon="6.00478">
        <ele>417</ele>
        <time>2019-04-11T13:16:04Z</time>
      </trkpt>
      <trkpt lat="46.97863" lon="6.00484">
        <ele>416</ele>
        <time>2019-04-11T13:16:28Z</time>
      </trkpt>
      <trkpt lat="46.97864" lon="6.00499">
        <ele>416</ele>
        <time>2019-04-11T13:16:33Z</time>
      </trkpt>
      <trkpt lat="46.97868" lon="6.00471">
        <ele>424</ele>
        <time>2019-04-11T13:16:58Z</time>
      </trkpt>
      <trkpt lat="46.97875" lon="6.00456">
        <ele>425</ele>
        <time>2019-04-11T13:18:17Z</time>
      </trkpt>
      <trkpt lat="46.97885" lon="6.00436">
        <ele>414</ele>
        <time>2019-04-11T13:18:57Z</time>
      </trkpt>
      <trkpt lat="46.97881" lon="6.00421">
        <ele>413</ele>
        <time>2019-04-11T13:19:15Z</time>
      </trkpt>
      <trkpt lat="46.97871" lon="6.0041">
        <ele>407</ele>
        <time>2019-04-11T13:19:28Z</time>
      </trkpt>
      <trkpt lat="46.97872" lon="6.00392">
        <ele>403</ele>
        <time>2019-04-11T13:19:46Z</time>
      </trkpt>
      <trkpt lat="46.97877" lon="6.0038">
        <ele>399</ele>
        <time>2019-04-11T13:20:52Z</time>
      </trkpt>
      <trkpt lat="46.97869" lon="6.00373">
        <ele>390</ele>
        <time>2019-04-11T13:21:21Z</time>
      </trkpt>
      <trkpt lat="46.97883" lon="6.00361">
        <ele>391</ele>
        <time>2019-04-11T13:23:07Z</time>
      </trkpt>
      <trkpt lat="46.97885" lon="6.00348">
        <ele>392</ele>
        <time>2019-04-11T13:23:14Z</time>
      </trkpt>
      <trkpt lat="46.9788" lon="6.00336">
        <ele>395</ele>
        <time>2019-04-11T13:23:25Z</time>
      </trkpt>
      <trkpt lat="46.97877" lon="6.00319">
        <ele>395</ele>
        <time>2019-04-11T13:23:35Z</time>
      </trkpt>
      <trkpt lat="46.9787" lon="6.00311">
        <ele>398</ele>
        <time>2019-04-11T13:23:53Z</time>
      </trkpt>
      <trkpt lat="46.97863" lon="6.00303">
        <ele>399</ele>
        <time>2019-04-11T13:24:23Z</time>
      </trkpt>
      <trkpt lat="46.97854" lon="6.00294">
        <ele>394</ele>
        <time>2019-04-11T13:27:05Z</time>
      </trkpt>
      <trkpt lat="46.97841" lon="6.00292">
        <ele>393</ele>
        <time>2019-04-11T13:27:23Z</time>
      </trkpt>
      <trkpt lat="46.97834" lon="6.00283">
        <ele>389</ele>
        <time>2019-04-11T13:27:47Z</time>
      </trkpt>
      <trkpt lat="46.97824" lon="6.00264">
        <ele>386</ele>
        <time>2019-04-11T13:28:08Z</time>
      </trkpt>
      <trkpt lat="46.97821" lon="6.00251">
        <ele>385</ele>
        <time>2019-04-11T13:28:18Z</time>
      </trkpt>
      <trkpt lat="46.97814" lon="6.00234">
        <ele>383</ele>
        <time>2019-04-11T13:28:34Z</time>
      </trkpt>
      <trkpt lat="46.97788" lon="6.0023">
        <ele>379</ele>
        <time>2019-04-11T13:29:00Z</time>
      </trkpt>
      <trkpt lat="46.97784" lon="6.00233">
        <ele>378</ele>
        <time>2019-04-11T13:29:05Z</time>
      </trkpt>
      <trkpt lat="46.97766" lon="6.00229">
        <ele>380</ele>
        <time>2019-04-11T13:29:25Z</time>
      </trkpt>
      <trkpt lat="46.97762" lon="6.00228">
        <ele>379</ele>
        <time>2019-04-11T13:29:30Z</time>
      </trkpt>
      <trkpt lat="46.97757" lon="6.0023">
        <ele>379</ele>
        <time>2019-04-11T13:29:37Z</time>
      </trkpt>
      <trkpt lat="46.97754" lon="6.00225">
        <ele>378</ele>
        <time>2019-04-11T13:29:43Z</time>
      </trkpt>
      <trkpt lat="46.97745" lon="6.00224">
        <ele>377</ele>
        <time>2019-04-11T13:29:55Z</time>
      </trkpt>
      <trkpt lat="46.97744" lon="6.00216">
        <ele>373</ele>
        <time>2019-04-11T13:30:12Z</time>
      </trkpt>
      <trkpt lat="46.97745" lon="6.00206">
        <ele>374</ele>
        <time>2019-04-11T13:30:20Z</time>
      </trkpt>
      <trkpt lat="46.97748" lon="6.002">
        <ele>373</ele>
        <time>2019-04-11T13:30:26Z</time>
      </trkpt>
      <trkpt lat="46.97741" lon="6.00199">
        <ele>373</ele>
        <time>2019-04-11T13:30:43Z</time>
      </trkpt>
      <trkpt lat="46.97743" lon="6.00185">
        <ele>370</ele>
        <time>2019-04-11T13:33:10Z</time>
      </trkpt>
      <trkpt lat="46.97742" lon="6.0017">
        <ele>368</ele>
        <time>2019-04-11T13:33:18Z</time>
      </trkpt>
      <trkpt lat="46.97741" lon="6.00155">
        <ele>369</ele>
        <time>2019-04-11T13:33:28Z</time>
      </trkpt>
      <trkpt lat="46.9774" lon="6.00139">
        <ele>368</ele>
        <time>2019-04-11T13:33:38Z</time>
      </trkpt>
      <trkpt lat="46.97741" lon="6.00132">
        <ele>368</ele>
        <time>2019-04-11T13:33:43Z</time>
      </trkpt>
      <trkpt lat="46.97744" lon="6.00124">
        <ele>366</ele>
        <time>2019-04-11T13:34:03Z</time>
      </trkpt>
      <trkpt lat="46.97744" lon="6.00118">
        <ele>365</ele>
        <time>2019-04-11T13:34:08Z</time>
      </trkpt>
      <trkpt lat="46.97744" lon="6.00111">
        <ele>365</ele>
        <time>2019-04-11T13:34:12Z</time>
      </trkpt>
      <trkpt lat="46.97749" lon="6.00091">
        <ele>365</ele>
        <time>2019-04-11T13:34:24Z</time>
      </trkpt>
      <trkpt lat="46.97753" lon="6.00077">
        <ele>364</ele>
        <time>2019-04-11T13:34:32Z</time>
      </trkpt>
      <trkpt lat="46.97756" lon="6.00071">
        <ele>364</ele>
        <time>2019-04-11T13:34:36Z</time>
      </trkpt>
      <trkpt lat="46.97763" lon="6.00052">
        <ele>366</ele>
        <time>2019-04-11T13:34:49Z</time>
      </trkpt>
      <trkpt lat="46.97763" lon="6.00045">
        <ele>367</ele>
        <time>2019-04-11T13:34:54Z</time>
      </trkpt>
      <trkpt lat="46.97763" lon="6.00038">
        <ele>366</ele>
        <time>2019-04-11T13:34:59Z</time>
      </trkpt>
      <trkpt lat="46.97763" lon="6.0003">
        <ele>366</ele>
        <time>2019-04-11T13:35:04Z</time>
      </trkpt>
      <trkpt lat="46.97762" lon="6.00023">
        <ele>367</ele>
        <time>2019-04-11T13:35:08Z</time>
      </trkpt>
      <trkpt lat="46.97761" lon="6.00016">
        <ele>367</ele>
        <time>2019-04-11T13:35:13Z</time>
      </trkpt>
      <trkpt lat="46.97757" lon="6.00011">
        <ele>367</ele>
        <time>2019-04-11T13:35:18Z</time>
      </trkpt>
      <trkpt lat="46.9775" lon="6.00007">
        <ele>367</ele>
        <time>2019-04-11T13:35:23Z</time>
      </trkpt>
      <trkpt lat="46.97745" lon="5.99998">
        <ele>365</ele>
        <time>2019-04-11T13:35:34Z</time>
      </trkpt>
      <trkpt lat="46.97737" lon="5.99988">
        <ele>364</ele>
        <time>2019-04-11T13:35:44Z</time>
      </trkpt>
      <trkpt lat="46.97733" lon="5.99983">
        <ele>364</ele>
        <time>2019-04-11T13:35:49Z</time>
      </trkpt>
      <trkpt lat="46.97729" lon="5.9998">
        <ele>364</ele>
        <time>2019-04-11T13:35:53Z</time>
      </trkpt>
      <trkpt lat="46.97725" lon="5.99977">
        <ele>364</ele>
        <time>2019-04-11T13:35:57Z</time>
      </trkpt>
      <trkpt lat="46.9772" lon="5.99974">
        <ele>364</ele>
        <time>2019-04-11T13:36:02Z</time>
      </trkpt>
      <trkpt lat="46.9771" lon="5.99962">
        <ele>362</ele>
        <time>2019-04-11T13:36:15Z</time>
      </trkpt>
      <trkpt lat="46.97708" lon="5.99955">
        <ele>362</ele>
        <time>2019-04-11T13:36:20Z</time>
      </trkpt>
      <trkpt lat="46.97705" lon="5.99949">
        <ele>363</ele>
        <time>2019-04-11T13:36:23Z</time>
      </trkpt>
      <trkpt lat="46.97701" lon="5.99943">
        <ele>362</ele>
        <time>2019-04-11T13:36:29Z</time>
      </trkpt>
      <trkpt lat="46.97692" lon="5.99929">
        <ele>367</ele>
        <time>2019-04-11T13:36:43Z</time>
      </trkpt>
      <trkpt lat="46.9769" lon="5.99922">
        <ele>367</ele>
        <time>2019-04-11T13:36:48Z</time>
      </trkpt>
      <trkpt lat="46.97688" lon="5.99914">
        <ele>366</ele>
        <time>2019-04-11T13:36:56Z</time>
      </trkpt>
      <trkpt lat="46.97685" lon="5.99908">
        <ele>366</ele>
        <time>2019-04-11T13:37:02Z</time>
      </trkpt>
      <trkpt lat="46.97681" lon="5.99899">
        <ele>365</ele>
        <time>2019-04-11T13:37:14Z</time>
      </trkpt>
    </trkseg>
  </trk>
</gpx>